Zarling — WDD7883 — position and weather

sailwx.info

Track history (hours):
 
Tides and Currents Weather Stations Pressure Air Temp Water Temp Dewpoint Dewpoint Depression Visibility Wind Speed Wind Dir Waves Ship Positions

Zarling

Owner: Clean Rivers Co-op, Portland, OR. More information available from US FCC via Universal Licensing System.

Last reported at 2014-Nov-24 21:32 UTC. Time now 2014-Nov-24 21:39 UTC.
Position N 46°12' W 123°23'.

Length 12 m.

Type: Pollution control. MMSI: 3699126.

Date/timePositionNaut miles runAvg speedWind from/ knotsBaromVisibWave heightAir tempDewpointWater temp
2014-Nov-24 21:32N 46°12' W 123°23'205637.4
2014-Nov-24 21:32N 46°05' W 122°56'29175.2
2014-Nov-24 21:22N 45°37' W 122°48'1597.2
2014-Nov-24 21:13N 45°52' W 122°48'1521.3
2014-Nov-24 20:31N 45°37' W 122°48'157629.8
2014-Nov-24 20:31N 45°52' W 122°48'321038.3
2014-Nov-24 20:29N 46°12' W 123°23'205637.4
2014-Nov-24 20:29N 46°05' W 122°56'1415.0
2014-Nov-24 19:31N 45°52' W 122°48'14419.9
2014-Nov-24 19:29N 46°05' W 122°56'29450.7
2014-Nov-24 19:25N 45°37' W 122°48'43519.7
2014-Nov-24 19:20N 46°12' W 123°23'4352.4
2014-Nov-24 18:31N 45°37' W 122°48'15287.0
2014-Nov-24 18:28N 45°52' W 122°48'14171.8
2014-Nov-24 18:23N 46°05' W 122°56'20103.7
2014-Nov-24 18:11N 46°12' W 123°23'3247.8
2014-Nov-24 17:31N 45°52' W 122°48'321047.7
2014-Nov-24 17:29N 46°12' W 123°23'432489.2
2014-Nov-24 17:28N 45°37' W 122°48'29775.9
2014-Nov-24 17:26N 46°05' W 122°56'2931.4
2014-Nov-24 16:31N 45°37' W 122°48'1513346.8
2014-Nov-24 16:31N 45°52' W 122°48'14406.6
2014-Nov-24 16:29N 46°05' W 122°56'272374.2
2014-Nov-24 16:28N 45°39' W 122°46'42228.1
2014-Nov-24 16:17N 46°12' W 123°23'2027.1
2014-Nov-24 15:32N 46°05' W 122°56'292106.5
2014-Nov-24 15:31N 45°37' W 122°48'157626.7
2014-Nov-24 15:31N 45°52' W 122°48'32176.8
2014-Nov-24 15:20N 46°12' W 123°23'0 0.0
2014-Nov-24 14:32N 46°12' W 123°23'433355.4
2014-Nov-24 14:31N 45°37' W 122°48'157626.7
2014-Nov-24 14:31N 45°52' W 122°48'14410.0
2014-Nov-24 14:29N 46°05' W 122°56'2021.4
2014-Nov-24 13:32N 46°12' W 123°23'322216.5
2014-Nov-24 13:31N 45°52' W 122°48'14406.8
2014-Nov-24 13:29N 46°05' W 122°56'29253.6
2014-Nov-24 13:22N 45°37' W 122°48'4351.3
2014-Nov-24 12:32N 46°12' W 123°23'322058.0
2014-Nov-24 12:31N 45°52' W 122°48'14169.5
2014-Nov-24 12:26N 46°05' W 122°56'29134.8
2014-Nov-24 12:13N 45°37' W 122°48'1521.1
2014-Nov-24 11:31N 45°52' W 122°48'14406.6
2014-Nov-24 11:29N 46°05' W 122°56'292293.8
2014-Nov-24 11:28N 45°37' W 122°48'43486.9
2014-Nov-24 11:23N 46°12' W 123°23'0 0.0
2014-Nov-24 10:29N 46°12' W 123°23'433284.0
2014-Nov-24 10:28N 45°37' W 122°48'29326.6
2014-Nov-24 10:23N 46°05' W 122°56'14226.3
2014-Nov-24 10:19N 45°52' W 122°48'0 0.0
2014-Nov-24 09:31N 45°52' W 122°48'14403.6
2014-Nov-24 09:29N 46°05' W 122°56'292345.4
2014-Nov-24 09:28N 45°37' W 122°48'431143.2
2014-Nov-24 09:26N 46°12' W 123°23'4347.0
2014-Nov-24 08:31N 45°37' W 122°48'156670.7
2014-Nov-24 08:31N 45°52' W 122°48'14403.6
2014-Nov-24 08:29N 46°05' W 122°56'2073285.7
2014-Nov-24 08:29N 46°12' W 123°23'0 0.0
2014-Nov-24 07:32N 46°12' W 123°23'433355.0
2014-Nov-24 07:31N 45°37' W 122°48'158894.3
2014-Nov-24 07:31N 45°52' W 122°48'14400.5
2014-Nov-24 07:29N 46°05' W 122°56'2021.4
2014-Nov-24 06:32N 46°12' W 123°23'322305.2
2014-Nov-24 06:31N 45°52' W 122°48'14394.4
2014-Nov-24 06:29N 46°05' W 122°56'292646.1
2014-Nov-24 06:28N 45°37' W 122°48'4345.7
2014-Nov-24 05:32N 46°12' W 123°23'322305.2
2014-Nov-24 05:31N 45°52' W 122°48'15152.1
2014-Nov-24 05:25N 45°37' W 122°48'291810.9
2014-Nov-24 05:24N 46°05' W 122°56'2023.3
2014-Nov-24 04:32N 46°12' W 123°23'20771.4
2014-Nov-24 04:31N 46°05' W 122°56'29825.6
2014-Nov-24 04:28N 45°37' W 122°48'156670.7
2014-Nov-24 04:28N 45°52' W 122°48'1415.8
2014-Nov-24 03:34N 46°05' W 122°56'20852.2
2014-Nov-24 03:32N 46°12' W 123°23'433858.3
2014-Nov-24 03:31N 45°37' W 122°48'1510677.4
2014-Nov-24 03:31N 45°52' W 122°48'1415.0
2014-Nov-24 02:33N 46°05' W 122°56'20893.7
2014-Nov-24 02:32N 46°12' W 123°23'433674.6
2014-Nov-24 02:31N 45°37' W 122°48'157626.7
2014-Nov-24 02:31N 45°52' W 122°48'1946.4
2014-Nov-24 02:06N 45°33' W 122°42'3461.5
2014-Nov-24 01:33N 46°05' W 122°56'20872.4
2014-Nov-24 01:32N 46°12' W 123°23'43386.8
2014-Nov-24 01:25N 45°37' W 122°48'157626.7
2014-Nov-24 01:25N 45°52' W 122°48'19171.9
2014-Nov-24 01:19N 45°33' W 122°42'3444.8
2014-Nov-24 00:33N 46°05' W 122°56'29853.1
2014-Nov-24 00:31N 45°37' W 122°48'157626.7
2014-Nov-24 00:31N 45°52' W 122°48'32233.8
2014-Nov-24 00:23N 46°12' W 123°23'2024.6
2014-Nov-23 23:33N 46°05' W 122°56'20893.7
2014-Nov-23 23:32N 46°12' W 123°23'433957.7
2014-Nov-23 23:31N 45°37' W 122°48'158901.5
2014-Nov-23 23:31N 45°52' W 122°48'3232.4
2014-Nov-23 22:32N 46°12' W 123°23'434061.4
2014-Nov-23 22:31N 45°37' W 122°48'291749.1
2014-Nov-23 22:30N 46°05' W 122°56'14169.0
2014-Nov-23 22:25N 45°52' W 122°48'1516.5
2014-Nov-23 21:31N 45°37' W 122°48'158894.3
2014-Nov-23 21:31N 45°52' W 122°48'19312.1
2014-Nov-23 21:28N 45°33' W 122°42'3412112.5
2014-Nov-23 21:27N 46°05' W 122°56'20165.4
2014-Nov-23 21:20N 46°12' W 123°23'2026.2
2014-Nov-23 20:33N 46°05' W 122°56'29860.2
2014-Nov-23 20:31N 45°37' W 122°48'158897.9
2014-Nov-23 20:31N 45°52' W 122°48'32860.1
2014-Nov-23 20:29N 46°12' W 123°23'49129.3
2014-Nov-23 20:07N 45°33' W 122°42'3461.0
2014-Nov-23 19:33N 46°05' W 122°56'20893.7
2014-Nov-23 19:32N 46°12' W 123°23'43704.8
2014-Nov-23 19:28N 45°37' W 122°48'1513346.8
2014-Nov-23 19:28N 45°52' W 122°48'1515.6
2014-Nov-23 18:32N 45°37' W 122°48'15284.0
2014-Nov-23 18:28N 45°52' W 122°48'141020.5
2014-Nov-23 18:28N 46°05' W 122°56'34692.1
2014-Nov-23 18:25N 45°33' W 122°42'49278.4
2014-Nov-23 18:14N 46°12' W 123°23'2028.0
2014-Nov-23 17:30N 46°05' W 122°56'20280.8
2014-Nov-23 17:26N 46°12' W 123°23'434061.4
2014-Nov-23 17:25N 45°37' W 122°48'15288.6
2014-Nov-23 17:22N 45°52' W 122°48'19118.4
2014-Nov-23 17:13N 45°33' W 122°42'4972.1
2014-Nov-23 16:32N 46°12' W 123°23'204885.7
2014-Nov-23 16:32N 46°05' W 122°56'294486.9
2014-Nov-23 16:31N 45°37' W 122°48'1513346.8
2014-Nov-23 16:31N 45°52' W 122°48'191338.9
2014-Nov-23 16:31N 45°33' W 122°42'4949.9
2014-Nov-23 15:32N 46°12' W 123°23'205235.2
2014-Nov-23 15:32N 46°05' W 122°56'29516.1
2014-Nov-23 15:29N 45°37' W 122°48'156673.4
2014-Nov-23 15:28N 45°52' W 122°48'1921.1
2014-Nov-23 14:33N 45°33' W 122°42'341331.0
2014-Nov-23 14:32N 46°05' W 122°56'29516.1
2014-Nov-23 14:29N 45°37' W 122°48'1510677.4
2014-Nov-23 14:28N 45°52' W 122°48'32817.4
2014-Nov-23 14:26N 46°12' W 123°23'0 0.0
2014-Nov-23 13:32N 46°12' W 123°23'20377.8
2014-Nov-23 13:29N 46°05' W 122°56'296071.7
2014-Nov-23 13:29N 45°37' W 122°48'15285.5
2014-Nov-23 13:25N 45°52' W 122°48'19115.0
2014-Nov-23 13:15N 45°33' W 122°42'4967.4
2014-Nov-23 12:32N 46°12' W 123°23'204885.7
2014-Nov-23 12:32N 46°05' W 122°56'142169.3
2014-Nov-23 12:31N 45°52' W 122°48'15306.8
2014-Nov-23 12:29N 45°37' W 122°48'6297.1
2014-Nov-23 12:27N 45°33' W 122°42'6 6.3
2014-Nov-23 11:32N 45°37' W 122°48'43469.1
2014-Nov-23 11:26N 46°12' W 123°23'20379.7
2014-Nov-23 11:23N 46°05' W 122°56'14253.9
2014-Nov-23 11:19N 45°52' W 122°48'3240.6
2014-Nov-23 10:32N 46°12' W 123°23'435144.4
2014-Nov-23 10:32N 45°37' W 122°48'158897.9
2014-Nov-23 10:31N 45°52' W 122°48'14333.6
2014-Nov-23 10:29N 46°05' W 122°56'2021.5
2014-Nov-23 09:32N 46°12' W 123°23'205234.7
2014-Nov-23 09:32N 46°05' W 122°56'295431.5
2014-Nov-23 09:32N 45°37' W 122°48'1598.1
2014-Nov-23 09:22N 45°52' W 122°48'19281.8
2014-Nov-23 09:18N 45°33' W 122°42'4963.1
2014-Nov-23 08:32N 46°12' W 123°23'209160.7
2014-Nov-23 08:32N 46°05' W 122°56'294486.9
2014-Nov-23 08:32N 45°37' W 122°48'648.7
2014-Nov-23 08:24N 45°33' W 122°42'19605.4
2014-Nov-23 08:22N 45°52' W 122°48'3238.1
2014-Nov-23 07:32N 46°12' W 123°23'323390.0
2014-Nov-23 07:31N 45°52' W 122°48'14154.0
2014-Nov-23 07:26N 46°05' W 122°56'29273.1
2014-Nov-23 07:20N 45°37' W 122°48'0 0.0
2014-Nov-23 06:32N 45°37' W 122°48'1510673.1
2014-Nov-23 06:31N 45°52' W 122°48'322260.0
2014-Nov-23 06:31N 46°12' W 123°23'20678.6
2014-Nov-23 06:29N 46°05' W 122°56'0 0.0
2014-Nov-23 05:32N 46°05' W 122°56'142603.2
2014-Nov-23 05:32N 45°52' W 122°48'15301.5
2014-Nov-23 05:29N 45°37' W 122°48'43656.7
2014-Nov-23 05:25N 46°12' W 123°23'4910944.2
2014-Nov-23 05:24N 45°33' W 122°42'1921.9
2014-Nov-23 04:31N 45°52' W 122°48'14327.3
2014-Nov-23 04:29N 46°05' W 122°56'20287.4
2014-Nov-23 04:25N 46°12' W 123°23'431330.4
2014-Nov-23 04:23N 45°37' W 122°48'0 0.0
2014-Nov-23 03:32N 45°37' W 122°48'432615.8
2014-Nov-23 03:31N 46°12' W 123°23'32900.4
2014-Nov-23 03:29N 45°52' W 122°48'14153.5
2014-Nov-23 03:23N 46°05' W 122°56'2023.4
2014-Nov-23 02:31N 46°12' W 123°23'20672.3
2014-Nov-23 02:29N 46°05' W 122°56'298599.9
2014-Nov-23 02:29N 45°37' W 122°48'158897.9
2014-Nov-23 02:29N 45°52' W 122°48'1515.6
2014-Nov-23 01:32N 45°37' W 122°48'43632.6
2014-Nov-23 01:28N 46°12' W 123°23'32381.7
2014-Nov-23 01:23N 45°52' W 122°48'14327.4
2014-Nov-23 01:20N 46°05' W 122°56'2024.8
2014-Nov-23 00:31N 46°12' W 123°23'431286.2
2014-Nov-23 00:29N 45°37' W 122°48'157626.7
2014-Nov-23 00:29N 45°52' W 122°48'14100.1
2014-Nov-23 00:20N 46°05' W 122°56'0 0.0
2014-Nov-22 23:32N 46°05' W 122°56'142740.2
2014-Nov-22 23:32N 45°52' W 122°48'322058.2
2014-Nov-22 23:31N 46°12' W 123°23'43517.9
2014-Nov-22 23:26N 45°37' W 122°48'4346.7
2014-Nov-22 22:31N 46°12' W 123°23'32976.7
2014-Nov-22 22:29N 45°52' W 122°48'144003.4
2014-Nov-22 22:28N 46°05' W 122°56'29637.0
2014-Nov-22 22:26N 45°37' W 122°48'1515.6
2014-Nov-22 21:29N 45°52' W 122°48'322022.1
2014-Nov-22 21:28N 46°12' W 123°23'43523.2
2014-Nov-22 21:23N 45°37' W 122°48'29272.3
2014-Nov-22 21:16N 46°05' W 122°56'2938.5
2014-Nov-22 20:32N 45°37' W 122°48'157626.7
2014-Nov-22 20:32N 45°52' W 122°48'322058.2
2014-Nov-22 20:31N 46°12' W 123°23'20538.9
2014-Nov-22 20:28N 46°05' W 122°56'2021.7
2014-Nov-22 19:32N 46°12' W 123°23'201879.1
2014-Nov-22 19:31N 46°05' W 122°56'29625.6
2014-Nov-22 19:29N 45°37' W 122°48'1510677.4
2014-Nov-22 19:29N 45°52' W 122°48'3234.0
2014-Nov-22 18:32N 46°12' W 123°23'323717.6
2014-Nov-22 18:32N 45°52' W 122°48'15306.8
2014-Nov-22 18:29N 45°37' W 122°48'295159.9
2014-Nov-22 18:28N 46°05' W 122°56'2021.7
2014-Nov-22 17:32N 46°12' W 123°23'43274.6
2014-Nov-22 17:23N 45°37' W 122°48'294486.9
2014-Nov-22 17:22N 46°05' W 122°56'14311.6
2014-Nov-22 17:20N 45°52' W 122°48'0 0.0
2014-Nov-22 16:32N 45°52' W 122°48'143469.6
2014-Nov-22 16:31N 46°05' W 122°56'29307.1
2014-Nov-22 16:26N 45°37' W 122°48'43297.9
2014-Nov-22 16:17N 46°12' W 123°23'4356.7
2014-Nov-22 15:32N 45°37' W 122°48'1513346.8
2014-Nov-22 15:32N 45°52' W 122°48'32748.4
2014-Nov-22 15:29N 46°12' W 123°23'201704.3
2014-Nov-22 15:28N 46°05' W 122°56'2021.7
2014-Nov-22 14:32N 46°12' W 123°23'324433.1
2014-Nov-22 14:32N 45°52' W 122°48'15310.4
2014-Nov-22 14:29N 45°37' W 122°48'294487.8
2014-Nov-22 14:28N 46°05' W 122°56'2021.7
2014-Nov-22 13:32N 46°12' W 123°23'323974.0
2014-Nov-22 13:32N 45°52' W 122°48'15308.7
2014-Nov-22 13:29N 45°37' W 122°48'294300.8
2014-Nov-22 13:28N 46°05' W 122°56'2020.6
2014-Nov-22 12:29N 46°12' W 123°23'324268.9
2014-Nov-22 12:29N 45°52' W 122°48'143254.0
2014-Nov-22 12:28N 46°05' W 122°56'29657.5
2014-Nov-22 12:26N 45°37' W 122°48'4348.0
2014-Nov-22 11:32N 46°12' W 123°23'43771.7
2014-Nov-22 11:29N 45°37' W 122°48'156673.4
2014-Nov-22 11:29N 45°52' W 122°48'1493.3
2014-Nov-22 11:19N 46°05' W 122°56'2025.9
2014-Nov-22 10:32N 46°12' W 123°23'437349.1
2014-Nov-22 10:32N 45°37' W 122°48'157626.7
2014-Nov-22 10:32N 45°52' W 122°48'14265.5
2014-Nov-22 10:28N 46°05' W 122°56'2021.7
2014-Nov-22 09:32N 46°12' W 123°23'43274.6
2014-Nov-22 09:23N 45°37' W 122°48'157623.7
2014-Nov-22 09:23N 45°52' W 122°48'142740.2
2014-Nov-22 09:22N 46°05' W 122°56'2024.3
2014-Nov-22 08:32N 46°12' W 123°23'43771.7
2014-Nov-22 08:29N 45°37' W 122°48'156673.4
2014-Nov-22 08:29N 45°52' W 122°48'142739.2
2014-Nov-22 08:28N 46°05' W 122°56'2021.7
2014-Nov-22 07:32N 46°12' W 123°23'325010.7
2014-Nov-22 07:32N 45°52' W 122°48'15305.1
2014-Nov-22 07:29N 45°37' W 122°48'293969.2
2014-Nov-22 07:28N 46°05' W 122°56'2930.5
2014-Nov-22 06:32N 45°37' W 122°48'293686.4
2014-Nov-22 06:31N 46°05' W 122°56'20523.5
2014-Nov-22 06:29N 46°12' W 123°23'324801.9
2014-Nov-22 06:29N 45°52' W 122°48'1515.7
2014-Nov-22 05:32N 45°37' W 122°48'157623.7
2014-Nov-22 05:32N 45°52' W 122°48'32724.9
2014-Nov-22 05:29N 46°12' W 123°23'201665.6
2014-Nov-22 05:28N 46°05' W 122°56'2930.4
2014-Nov-22 04:32N 45°37' W 122°48'293822.2
2014-Nov-22 04:31N 46°05' W 122°56'20534.9
2014-Nov-22 04:29N 46°12' W 123°23'325238.4
2014-Nov-22 04:29N 45°52' W 122°48'3233.9
2014-Nov-22 03:32N 46°12' W 123°23'4312861.0
2014-Nov-22 03:32N 45°37' W 122°48'156673.4
2014-Nov-22 03:32N 45°52' W 122°48'1492.6
2014-Nov-22 03:22N 46°05' W 122°56'1416.2
2014-Nov-22 02:29N 45°52' W 122°48'19818.8
2014-Nov-22 02:27N 45°33' W 122°42'341017.7
2014-Nov-22 02:25N 46°05' W 122°56'29697.3
2014-Nov-22 02:23N 45°37' W 122°48'4350.7
2014-Nov-22 01:32N 46°12' W 123°23'439646.8
2014-Nov-22 01:32N 45°37' W 122°48'157626.7
2014-Nov-22 01:32N 45°52' W 122°48'142479.2
2014-Nov-22 01:31N 46°05' W 122°56'34502.6
2014-Nov-22 01:27N 45°33' W 122°42'0 0.0
2014-Nov-22 00:33N 45°33' W 122°42'677.5
2014-Nov-22 00:29N 45°37' W 122°48'293686.4
2014-Nov-22 00:28N 46°05' W 122°56'20231.2
2014-Nov-22 00:23N 46°12' W 123°23'326067.0
2014-Nov-22 00:23N 45°52' W 122°48'1923.5
2014-Nov-21 23:33N 45°33' W 122°42'6237.0
2014-Nov-21 23:32N 45°37' W 122°48'158897.9
2014-Nov-21 23:32N 45°52' W 122°48'142263.7
2014-Nov-21 23:31N 46°05' W 122°56'20231.9
2014-Nov-21 23:26N 46°12' W 123°23'3235.3
2014-Nov-21 22:32N 45°52' W 122°48'32724.8
2014-Nov-21 22:29N 46°12' W 123°23'4311871.7
2014-Nov-21 22:29N 45°37' W 122°48'29489.1
2014-Nov-21 22:25N 46°05' W 122°56'34126.0
2014-Nov-21 22:09N 45°33' W 122°42'0 0.0
2014-Nov-21 21:32N 45°33' W 122°42'343460.7
2014-Nov-21 21:31N 46°05' W 122°56'14331.5
2014-Nov-21 21:29N 45°52' W 122°48'32724.8
2014-Nov-21 21:26N 46°12' W 123°23'43278.6
2014-Nov-21 21:17N 45°37' W 122°48'4357.5
2014-Nov-21 20:32N 46°12' W 123°23'4312862.4
2014-Nov-21 20:32N 45°37' W 122°48'29179.8
2014-Nov-21 20:22N 46°05' W 122°56'34846.9
2014-Nov-21 20:20N 45°33' W 122°42'196325.5
2014-Nov-21 20:20N 45°52' W 122°48'3240.3
2014-Nov-21 19:32N 46°12' W 123°23'4919456.4
2014-Nov-21 19:32N 45°33' W 122°42'67030.2
2014-Nov-21 19:32N 45°37' W 122°48'29180.5
2014-Nov-21 19:22N 46°05' W 122°56'14156.3
2014-Nov-21 19:17N 45°52' W 122°48'0 0.0
2014-Nov-21 18:32N 45°52' W 122°48'14251.4
2014-Nov-21 18:28N 46°05' W 122°56'29318.5
2014-Nov-21 18:23N 45°37' W 122°48'43291.2
2014-Nov-21 18:14N 46°12' W 123°23'4361.0
2014-Nov-21 17:32N 45°37' W 122°48'29480.0
2014-Nov-21 17:28N 46°05' W 122°56'20234.9
2014-Nov-21 17:23N 46°12' W 123°23'32576.2
2014-Nov-21 17:20N 45°52' W 122°48'1518.6
2014-Nov-21 16:32N 45°37' W 122°48'1510677.4
2014-Nov-21 16:32N 45°52' W 122°48'32690.1
2014-Nov-21 16:29N 46°12' W 123°23'201704.3
2014-Nov-21 16:28N 46°05' W 122°56'1415.4
2014-Nov-21 15:32N 45°52' W 122°48'32698.5
2014-Nov-21 15:29N 46°12' W 123°23'4319293.7
2014-Nov-21 15:29N 45°37' W 122°48'292949.1
2014-Nov-21 15:28N 46°05' W 122°56'0 0.0
2014-Nov-21 14:31N 46°05' W 122°56'29316.6
2014-Nov-21 14:26N 45°37' W 122°48'15287.0
2014-Nov-21 14:23N 45°52' W 122°48'32331.2
2014-Nov-21 14:17N 46°12' W 123°23'0 0.0
2014-Nov-21 13:29N 46°12' W 123°23'327684.0
2014-Nov-21 13:29N 45°52' W 122°48'14247.9
2014-Nov-21 13:25N 46°05' W 122°56'29716.8
2014-Nov-21 13:23N 45°37' W 122°48'4347.8
2014-Nov-21 12:29N 46°12' W 123°23'201704.3
2014-Nov-21 12:28N 46°05' W 122°56'29711.9
2014-Nov-21 12:26N 45°37' W 122°48'1510677.4
2014-Nov-21 12:26N 45°52' W 122°48'1415.9
2014-Nov-21 11:31N 46°05' W 122°56'20551.0
2014-Nov-21 11:29N 46°12' W 123°23'4317148.0
2014-Nov-21 11:29N 45°37' W 122°48'157626.7
2014-Nov-21 11:29N 45°52' W 122°48'1515.6
2014-Nov-21 10:32N 45°37' W 122°48'1513346.8
2014-Nov-21 10:32N 45°52' W 122°48'32682.0
2014-Nov-21 10:29N 46°12' W 123°23'20325.7
2014-Nov-21 10:25N 46°05' W 122°56'1416.2
2014-Nov-21 09:32N 45°52' W 122°48'32694.3
2014-Nov-21 09:29N 46°12' W 123°23'4319293.7
2014-Nov-21 09:29N 45°37' W 122°48'29475.7
2014-Nov-21 09:25N 46°05' W 122°56'0 0.0
2014-Nov-21 08:31N 46°05' W 122°56'29742.4
2014-Nov-21 08:29N 45°37' W 122°48'43881.9
2014-Nov-21 08:26N 46°12' W 123°23'329605.0
2014-Nov-21 08:26N 45°52' W 122°48'0 0.0
2014-Nov-21 07:32N 45°52' W 122°48'32682.0
2014-Nov-21 07:29N 46°12' W 123°23'4338582.9
2014-Nov-21 07:29N 45°37' W 122°48'292646.1
2014-Nov-21 07:28N 46°05' W 122°56'2019.6
2014-Nov-21 06:26N 46°12' W 123°23'4330866.3
2014-Nov-21 06:26N 45°37' W 122°48'157623.7
2014-Nov-21 06:26N 45°52' W 122°48'14244.4
2014-Nov-21 06:22N 46°05' W 122°56'2024.3
2014-Nov-21 05:32N 46°12' W 123°23'43154331.6
2014-Nov-21 05:32N 45°37' W 122°48'156673.4
2014-Nov-21 05:32N 45°52' W 122°48'14243.2
2014-Nov-21 05:28N 46°05' W 122°56'0 0.0
2014-Nov-21 04:33N 46°05' W 122°56'291274.1
2014-Nov-21 04:32N 45°37' W 122°48'158897.9
2014-Nov-21 04:32N 45°52' W 122°48'32670.0
2014-Nov-21 04:29N 46°12' W 123°23'2021.7
2014-Nov-21 03:33N 46°05' W 122°56'292866.6
2014-Nov-21 03:32N 45°37' W 122°48'157626.7
2014-Nov-21 03:32N 45°52' W 122°48'32677.9
2014-Nov-21 03:29N 46°12' W 123°23'3233.6
2014-Nov-21 02:32N 45°52' W 122°48'14379.9
2014-Nov-21 02:30N 46°05' W 122°56'202155.5
2014-Nov-21 02:29N 46°12' W 123°23'4351443.9
2014-Nov-21 02:29N 45°37' W 122°48'2930.3
2014-Nov-21 01:32N 46°05' W 122°56'20396.1
2014-Nov-21 01:29N 46°12' W 123°23'3214407.5
2014-Nov-21 01:29N 45°52' W 122°48'15298.3
2014-Nov-21 01:26N 45°37' W 122°48'2932.0
2014-Nov-21 00:32N 46°05' W 122°56'20379.7
2014-Nov-21 00:29N 46°12' W 123°23'3223051.9
2014-Nov-21 00:29N 45°52' W 122°48'15100.0
2014-Nov-21 00:20N 45°37' W 122°48'2936.0
2014-Nov-20 23:32N 46°05' W 122°56'2911468.9
2014-Nov-20 23:32N 45°37' W 122°48'157626.7
2014-Nov-20 23:32N 45°52' W 122°48'32670.1
2014-Nov-20 23:29N 46°12' W 123°23'4345.1
2014-Nov-20 22:32N 45°37' W 122°48'29295.7
2014-Nov-20 22:26N 46°05' W 122°56'20396.1
2014-Nov-20 22:23N 46°12' W 123°23'3210476.9
2014-Nov-20 22:23N 45°52' W 122°48'3237.7
2014-Nov-20 21:32N 46°12' W 123°23'4377165.8
2014-Nov-20 21:32N 45°37' W 122°48'29610.6
2014-Nov-20 21:29N 46°05' W 122°56'143252.8
2014-Nov-20 21:29N 45°52' W 122°48'1415.3
2014-Nov-20 20:32N 46°05' W 122°56'2912902.5
2014-Nov-20 20:32N 45°37' W 122°48'43154349.4
2014-Nov-20 20:32N 46°12' W 123°23'32619.7
2014-Nov-20 20:29N 45°52' W 122°48'1415.3
2014-Nov-20 19:32N 46°05' W 122°56'209160.7
2014-Nov-20 19:32N 46°12' W 123°23'3219207.6
2014-Nov-20 19:32N 45°52' W 122°48'15308.6
2014-Nov-20 19:29N 45°37' W 122°48'2930.2
2014-Nov-20 18:32N 46°05' W 122°56'2917199.7
2014-Nov-20 18:32N 45°37' W 122°48'43154331.6
2014-Nov-20 18:32N 46°12' W 123°23'32619.6
2014-Nov-20 18:29N 45°52' W 122°48'1415.3
2014-Nov-20 17:32N 46°05' W 122°56'2917199.7
2014-Nov-20 17:32N 45°37' W 122°48'156673.4
2014-Nov-20 17:32N 45°52' W 122°48'32215.4
2014-Nov-20 17:23N 46°12' W 123°23'2024.0
2014-Nov-20 16:32N 46°05' W 122°56'203489.8
2014-Nov-20 16:32N 46°12' W 123°23'43448.7
2014-Nov-20 16:26N 45°37' W 122°48'15288.7
2014-Nov-20 16:23N 45°52' W 122°48'1417.1
2014-Nov-20 15:32N 46°05' W 122°56'2934406.6
2014-Nov-20 15:32N 45°37' W 122°48'437015.9
2014-Nov-20 15:32N 46°12' W 123°23'32331.2
2014-Nov-20 15:26N 45°52' W 122°48'1416.1
2014-Nov-20 14:32N 46°05' W 122°56'29557.9
2014-Nov-20 14:29N 45°37' W 122°48'158897.9
2014-Nov-20 14:29N 45°52' W 122°48'32310.7
2014-Nov-20 14:23N 46°12' W 123°23'2024.1
2014-Nov-20 13:32N 46°05' W 122°56'2934406.6
2014-Nov-20 13:32N 45°37' W 122°48'158897.9
2014-Nov-20 13:32N 45°52' W 122°48'327203.7
2014-Nov-20 13:32N 46°12' W 123°23'2020.5
2014-Nov-20 12:32N 46°05' W 122°56'2917203.3
2014-Nov-20 12:32N 45°37' W 122°48'438575.0
2014-Nov-20 12:32N 46°12' W 123°23'32698.5
2014-Nov-20 12:29N 45°52' W 122°48'1515.6
2014-Nov-20 11:32N 45°37' W 122°48'157623.7
2014-Nov-20 11:32N 45°52' W 122°48'328232.8
2014-Nov-20 11:32N 46°12' W 123°23'20142.3
2014-Nov-20 11:23N 46°05' W 122°56'0 0.0
2014-Nov-20 10:32N 46°05' W 122°56'2925799.6
2014-Nov-20 10:32N 45°37' W 122°48'1517795.7
2014-Nov-20 10:32N 45°52' W 122°48'1414.5
2014-Nov-20 09:32N 46°05' W 122°56'2925799.6
2014-Nov-20 09:32N 45°37' W 122°48'1513346.8
2014-Nov-20 09:32N 45°52' W 122°48'1414.5
2014-Nov-20 08:32N 46°05' W 122°56'2951609.9
2014-Nov-20 08:32N 45°37' W 122°48'15285.6
2014-Nov-20 08:29N 45°52' W 122°48'32206.9
2014-Nov-20 08:20N 46°12' W 123°23'2025.7
2014-Nov-20 07:32N 46°05' W 122°56'14278.4
2014-Nov-20 07:29N 45°52' W 122°48'328866.1
2014-Nov-20 07:29N 46°12' W 123°23'43453.9
2014-Nov-20 07:23N 45°37' W 122°48'2933.7
2014-Nov-20 06:32N 46°05' W 122°56'1410412.8
2014-Nov-20 06:32N 45°52' W 122°48'15150.8
2014-Nov-20 06:26N 45°37' W 122°48'436431.2
2014-Nov-20 06:26N 46°12' W 123°23'2022.8
2014-Nov-20 05:32N 46°05' W 122°56'29103198.5
2014-Nov-20 05:32N 45°37' W 122°48'1513341.4
2014-Nov-20 05:32N 45°52' W 122°48'325239.1
2014-Nov-20 05:32N 46°12' W 123°23'4343.2
2014-Nov-20 04:32N 45°37' W 122°48'1513346.8
2014-Nov-20 04:32N 45°52' W 122°48'327202.9
2014-Nov-20 04:32N 46°12' W 123°23'20215.5
2014-Nov-20 04:26N 46°05' W 122°56'2931.9
2014-Nov-20 03:32N 45°37' W 122°48'1510677.4
2014-Nov-20 03:32N 45°52' W 122°48'32303.3
2014-Nov-20 03:26N 46°12' W 123°23'20219.4
2014-Nov-20 03:20N 46°05' W 122°56'0 0.0
2014-Nov-20 02:32N 46°05' W 122°56'205637.4
2014-Nov-20 02:32N 46°12' W 123°23'43929.8
2014-Nov-20 02:29N 45°37' W 122°48'15287.0
2014-Nov-20 02:26N 45°52' W 122°48'1416.1
2014-Nov-20 01:32N 46°05' W 122°56'1410412.8
2014-Nov-20 01:32N 45°52' W 122°48'325763.0
2014-Nov-20 01:32N 46°12' W 123°23'431002.3
2014-Nov-20 01:29N 45°37' W 122°48'1515.6
2014-Nov-20 00:32N 45°52' W 122°48'325763.0
2014-Nov-20 00:32N 46°12' W 123°23'431015.5
2014-Nov-20 00:29N 45°37' W 122°48'29561.0
2014-Nov-20 00:26N 46°05' W 122°56'2931.9
2014-Nov-19 23:32N 45°37' W 122°48'2920643.9
2014-Nov-19 23:32N 46°05' W 122°56'1417354.7
2014-Nov-19 23:32N 45°52' W 122°48'325763.0
2014-Nov-19 23:32N 46°12' W 123°23'4343.2
2014-Nov-19 22:32N 45°37' W 122°48'2925799.6
2014-Nov-19 22:32N 46°05' W 122°56'202931.4
2014-Nov-19 22:32N 46°12' W 123°23'32339.0
2014-Nov-19 22:26N 45°52' W 122°48'1516.5
2014-Nov-19 21:32N 45°37' W 122°48'435511.8
2014-Nov-19 21:32N 46°12' W 123°23'32720.3
2014-Nov-19 21:29N 45°52' W 122°48'1448.4
2014-Nov-19 21:11N 46°05' W 122°56'2031.0
2014-Nov-19 20:32N 46°12' W 123°23'43470.6
2014-Nov-19 20:26N 45°37' W 122°48'2914745.7
2014-Nov-19 20:26N 46°05' W 122°56'1426032.1
2014-Nov-19 20:26N 45°52' W 122°48'1516.5
2014-Nov-19 19:32N 45°37' W 122°48'157626.7
2014-Nov-19 19:32N 45°52' W 122°48'1452064.2
2014-Nov-19 19:32N 46°05' W 122°56'20361.0
2014-Nov-19 19:29N 46°12' W 123°23'3233.9
2014-Nov-19 18:32N 45°52' W 122°48'324802.5
2014-Nov-19 18:32N 46°12' W 123°23'43224.0
2014-Nov-19 18:20N 45°37' W 122°48'0 0.0
2014-Nov-19 17:32N 45°37' W 122°48'158897.9
2014-Nov-19 17:32N 45°52' W 122°48'325238.4
2014-Nov-19 17:32N 46°12' W 123°23'2069.3
2014-Nov-19 17:14N 46°05' W 122°56'0 0.0
2014-Nov-19 16:32N 46°05' W 122°56'202931.4
2014-Nov-19 16:32N 46°12' W 123°23'32753.3
2014-Nov-19 16:29N 45°52' W 122°48'0 0.0
2014-Nov-19 15:32N 45°52' W 122°48'148677.4
2014-Nov-19 15:32N 46°05' W 122°56'203186.3
2014-Nov-19 15:32N 46°12' W 123°23'431042.9
2014-Nov-19 15:29N 45°37' W 122°48'2930.1
2014-Nov-19 14:32N 46°05' W 122°56'203186.7
2014-Nov-19 14:32N 46°12' W 123°23'43470.6
2014-Nov-19 14:26N 45°37' W 122°48'157626.7
2014-Nov-19 14:26N 45°52' W 122°48'1516.5
2014-Nov-19 13:32N 45°37' W 122°48'435321.8
2014-Nov-19 13:32N 46°12' W 123°23'20460.9
2014-Nov-19 13:29N 46°05' W 122°56'2930.2
2014-Nov-19 12:32N 45°37' W 122°48'157623.7
2014-Nov-19 12:32N 45°52' W 122°48'324433.1
2014-Nov-19 12:32N 46°12' W 123°23'20105.4
2014-Nov-19 12:20N 46°05' W 122°56'1418.1
2014-Nov-19 11:32N 45°52' W 122°48'1410408.8
2014-Nov-19 11:32N 46°05' W 122°56'203053.6
2014-Nov-19 11:32N 46°12' W 123°23'43472.0
2014-Nov-19 11:26N 45°37' W 122°48'1516.6
2014-Nov-19 10:33N 45°52' W 122°48'323717.6
2014-Nov-19 10:32N 46°12' W 123°23'20105.9
2014-Nov-19 10:21N 46°05' W 122°56'29143.9
2014-Nov-19 10:09N 45°37' W 122°48'4370.3
2014-Nov-19 09:32N 46°12' W 123°23'431064.4
2014-Nov-19 09:30N 45°37' W 122°48'158894.3
2014-Nov-19 09:30N 45°52' W 122°48'14143.0
2014-Nov-19 09:23N 46°05' W 122°56'1417.0
2014-Nov-19 08:33N 45°52' W 122°48'323718.1
2014-Nov-19 08:32N 46°12' W 123°23'20444.2
2014-Nov-19 08:29N 46°05' W 122°56'29305.3
2014-Nov-19 08:24N 45°37' W 122°48'1517.3
2014-Nov-19 07:32N 45°52' W 122°48'323974.5
2014-Nov-19 07:32N 46°12' W 123°23'431079.2
2014-Nov-19 07:29N 45°37' W 122°48'29277.4
2014-Nov-19 07:23N 46°05' W 122°56'2934.0
2014-Nov-19 06:33N 45°37' W 122°48'158897.9
2014-Nov-19 06:33N 45°52' W 122°48'1410408.8
2014-Nov-19 06:32N 46°05' W 122°56'20354.0
2014-Nov-19 06:29N 46°12' W 123°23'3234.0
2014-Nov-19 05:33N 45°52' W 122°48'15145.4
2014-Nov-19 05:26N 45°37' W 122°48'29573.3
2014-Nov-19 05:23N 46°05' W 122°56'20366.5
2014-Nov-19 05:20N 46°12' W 123°23'2025.7
2014-Nov-19 04:33N 46°05' W 122°56'146508.0
2014-Nov-19 04:32N 45°52' W 122°48'326780.0
2014-Nov-19 04:32N 46°12' W 123°23'43976.8
2014-Nov-19 04:29N 45°37' W 122°48'1515.6
2014-Nov-19 03:32N 45°52' W 122°48'327202.9
2014-Nov-19 03:32N 46°12' W 123°23'43306.8
2014-Nov-19 03:24N 45°37' W 122°48'29532.0
2014-Nov-19 03:20N 46°05' W 122°56'2935.9
2014-Nov-19 02:32N 45°37' W 122°48'435717.3
2014-Nov-19 02:32N 46°12' W 123°23'32352.5
2014-Nov-19 02:27N 45°52' W 122°48'145206.4
2014-Nov-19 02:26N 46°05' W 122°56'2930.3
2014-Nov-19 01:30N 45°37' W 122°48'296071.7
2014-Nov-19 01:29N 46°05' W 122°56'20336.2
2014-Nov-19 01:26N 46°12' W 123°23'32853.8
2014-Nov-19 01:24N 45°52' W 122°48'1517.5
2014-Nov-19 00:33N 45°37' W 122°48'433764.6
2014-Nov-19 00:32N 46°12' W 123°23'32794.9
2014-Nov-19 00:30N 45°52' W 122°48'14135.6
2014-Nov-19 00:23N 46°05' W 122°56'2934.0
2014-Nov-18 23:33N 45°37' W 122°48'1513341.4
2014-Nov-18 23:33N 45°52' W 122°48'142082.6
2014-Nov-18 23:32N 46°05' W 122°56'206107.1
2014-Nov-18 23:32N 46°12' W 123°23'3232.3
2014-Nov-18 22:33N 45°52' W 122°48'32498.9
2014-Nov-18 22:29N 46°12' W 123°23'20220.1
2014-Nov-18 22:23N 46°05' W 122°56'29314.6
2014-Nov-18 22:18N 45°37' W 122°48'1519.7
2014-Nov-18 21:33N 45°52' W 122°48'323492.3
2014-Nov-18 21:32N 46°12' W 123°23'431086.8
2014-Nov-18 21:30N 45°37' W 122°48'296879.9
2014-Nov-18 21:29N 46°05' W 122°56'1415.2
2014-Nov-18 20:32N 45°52' W 122°48'144004.9
2014-Nov-18 20:32N 46°05' W 122°56'202931.4
2014-Nov-18 20:32N 46°12' W 123°23'431118.5
2014-Nov-18 20:30N 45°37' W 122°48'0 0.0
2014-Nov-18 19:33N 45°37' W 122°48'158897.9
2014-Nov-18 19:32N 45°52' W 122°48'143717.4
2014-Nov-18 19:32N 46°05' W 122°56'20361.0
2014-Nov-18 19:29N 46°12' W 123°23'2021.6
2014-Nov-18 18:32N 46°05' W 122°56'29645.0
2014-Nov-18 18:30N 45°37' W 122°48'15282.5
2014-Nov-18 18:26N 45°52' W 122°48'323292.7
2014-Nov-18 18:26N 46°12' W 123°23'4348.3
2014-Nov-18 17:33N 45°37' W 122°48'157626.7
2014-Nov-18 17:32N 45°52' W 122°48'14271.1
2014-Nov-18 17:29N 46°05' W 122°56'20340.9
2014-Nov-18 17:26N 46°12' W 123°23'49265.7
2014-Nov-18 17:15N 45°33' W 122°42'0 0.0
2014-Nov-18 16:33N 45°33' W 122°42'63015.1
2014-Nov-18 16:33N 45°37' W 122°48'155931.9
2014-Nov-18 16:32N 45°52' W 122°48'322352.0
2014-Nov-18 16:32N 46°12' W 123°23'20172.8
2014-Nov-18 16:25N 46°05' W 122°56'2933.1
2014-Nov-18 15:33N 45°37' W 122°48'29853.2
2014-Nov-18 15:31N 46°05' W 122°56'14826.7
2014-Nov-18 15:29N 45°52' W 122°48'322260.0
2014-Nov-18 15:29N 46°12' W 123°23'491484.0
2014-Nov-18 15:27N 45°33' W 122°42'4953.0
2014-Nov-18 14:32N 46°12' W 123°23'431244.8
2014-Nov-18 14:30N 45°37' W 122°48'29853.1
2014-Nov-18 14:28N 46°05' W 122°56'14839.7
2014-Nov-18 14:27N 45°52' W 122°48'1516.5
2014-Nov-18 13:33N 45°37' W 122°48'1526693.6
2014-Nov-18 13:33N 45°52' W 122°48'32486.3
2014-Nov-18 13:29N 46°12' W 123°23'491577.5
2014-Nov-18 13:27N 45°33' W 122°42'34117.7
2014-Nov-18 13:10N 46°05' W 122°56'3454.7
2014-Nov-18 12:33N 45°33' W 122°42'63010.8
2014-Nov-18 12:33N 45°37' W 122°48'432114.6
2014-Nov-18 12:31N 46°12' W 123°23'20321.5
2014-Nov-18 12:28N 46°05' W 122°56'14788.9
2014-Nov-18 12:26N 45°52' W 122°48'1516.5
2014-Nov-18 11:33N 45°37' W 122°48'156670.7
2014-Nov-18 11:33N 45°52' W 122°48'321670.4
2014-Nov-18 11:31N 46°12' W 123°23'20178.7
2014-Nov-18 11:25N 46°05' W 122°56'34128.2
2014-Nov-18 11:09N 45°33' W 122°42'6 9.7
2014-Nov-18 10:33N 45°37' W 122°48'1510677.4
2014-Nov-18 10:33N 45°52' W 122°48'32268.0
2014-Nov-18 10:25N 46°12' W 123°23'201465.7
2014-Nov-18 10:25N 46°05' W 122°56'34205.6
2014-Nov-18 10:15N 45°33' W 122°42'0 0.0
2014-Nov-18 09:33N 45°33' W 122°42'194971.5
2014-Nov-18 09:33N 45°52' W 122°48'321646.6
2014-Nov-18 09:31N 46°12' W 123°23'20321.4
2014-Nov-18 09:28N 46°05' W 122°56'29173.5
2014-Nov-18 09:18N 45°37' W 122°48'0 0.0
2014-Nov-18 08:33N 45°37' W 122°48'158897.9
2014-Nov-18 08:33N 45°52' W 122°48'321670.2
2014-Nov-18 08:31N 46°12' W 123°23'20178.3
2014-Nov-18 08:25N 46°05' W 122°56'34206.3
2014-Nov-18 08:15N 45°33' W 122°42'6 8.4
2014-Nov-18 07:33N 45°37' W 122°48'15282.5
2014-Nov-18 07:30N 45°52' W 122°48'321623.2
2014-Nov-18 07:28N 46°12' W 123°23'201559.3
2014-Nov-18 07:28N 46°05' W 122°56'34107.3
2014-Nov-18 07:09N 45°33' W 122°42'3452.9
2014-Nov-18 06:31N 46°05' W 122°56'14214.3
2014-Nov-18 06:27N 45°52' W 122°48'321578.9
2014-Nov-18 06:25N 46°12' W 123°23'43336.2
2014-Nov-18 06:18N 45°37' W 122°48'0 0.0
2014-Nov-18 05:33N 45°37' W 122°48'155336.6
2014-Nov-18 05:33N 45°52' W 122°48'321646.6
2014-Nov-18 05:31N 46°12' W 123°23'49641.4
2014-Nov-18 05:27N 45°33' W 122°42'34116.9
2014-Nov-18 05:10N 46°05' W 122°56'2946.7
2014-Nov-18 04:33N 45°37' W 122°48'29806.2
2014-Nov-18 04:31N 46°05' W 122°56'14867.7
2014-Nov-18 04:30N 45°52' W 122°48'321623.4
2014-Nov-18 04:28N 46°12' W 123°23'0 0.0
2014-Nov-18 03:31N 46°12' W 123°23'201437.0
2014-Nov-18 03:31N 46°05' W 122°56'291911.1
2014-Nov-18 03:30N 45°37' W 122°48'15293.3
2014-Nov-18 03:27N 45°52' W 122°48'19198.3
2014-Nov-18 03:21N 45°33' W 122°42'6 7.3
2014-Nov-18 02:33N 45°37' W 122°48'431953.6
2014-Nov-18 02:31N 46°12' W 123°23'32400.2
2014-Nov-18 02:27N 45°52' W 122°48'14433.9
2014-Nov-18 02:25N 46°05' W 122°56'34128.2
2014-Nov-18 02:09N 45°33' W 122°42'6 9.7
2014-Nov-18 01:33N 45°37' W 122°48'1510677.4
2014-Nov-18 01:33N 45°52' W 122°48'321516.6
2014-Nov-18 01:31N 46°12' W 123°23'201526.8
2014-Nov-18 01:31N 46°05' W 122°56'34553.1
2014-Nov-18 01:27N 45°33' W 122°42'1921.4
2014-Nov-18 00:33N 45°52' W 122°48'321536.8
2014-Nov-18 00:31N 46°12' W 123°23'201559.3
2014-Nov-18 00:31N 46°05' W 122°56'34207.4
2014-Nov-18 00:21N 45°33' W 122°42'63515.1
2014-Nov-18 00:21N 45°37' W 122°48'0 0.0
2014-Nov-17 23:33N 45°37' W 122°48'431837.3
2014-Nov-17 23:31N 46°12' W 123°23'20325.7
2014-Nov-17 23:28N 46°05' W 122°56'342883.9
2014-Nov-17 23:27N 45°33' W 122°42'19185.1
2014-Nov-17 23:21N 45°52' W 122°48'1416.4
2014-Nov-17 22:28N 46°05' W 122°56'20563.7
2014-Nov-17 22:25N 46°12' W 123°23'32139.2
2014-Nov-17 22:12N 45°52' W 122°48'15151.7
2014-Nov-17 22:06N 45°37' W 122°48'0 0.0
2014-Nov-17 21:33N 45°37' W 122°48'431734.1
2014-Nov-17 21:31N 46°12' W 123°23'201593.2
2014-Nov-17 21:31N 46°05' W 122°56'14221.5
2014-Nov-17 21:27N 45°52' W 122°48'1957.2
2014-Nov-17 21:06N 45°33' W 122°42'610.5
2014-Nov-17 20:33N 45°37' W 122°48'158897.9
2014-Nov-17 20:33N 45°52' W 122°48'14416.5
2014-Nov-17 20:31N 46°05' W 122°56'20108.9
2014-Nov-17 20:19N 46°12' W 123°23'49660.8
2014-Nov-17 20:15N 45°33' W 122°42'4967.0
2014-Nov-17 19:31N 46°12' W 123°23'201526.8
2014-Nov-17 19:31N 46°05' W 122°56'343028.1
2014-Nov-17 19:30N 45°33' W 122°42'195355.6
2014-Nov-17 19:30N 45°52' W 122°48'15100.5
2014-Nov-17 19:21N 45°37' W 122°48'0 0.0
2014-Nov-17 18:33N 45°37' W 122°48'157626.7
2014-Nov-17 18:33N 45°52' W 122°48'321477.5
2014-Nov-17 18:31N 46°12' W 123°23'201526.8
2014-Nov-17 18:31N 46°05' W 122°56'2020.6
2014-Nov-17 17:31N 46°12' W 123°23'201465.9
2014-Nov-17 17:31N 46°05' W 122°56'292243.4
2014-Nov-17 17:30N 45°37' W 122°48'15145.5
2014-Nov-17 17:24N 45°52' W 122°48'3236.8
2014-Nov-17 16:32N 46°12' W 123°23'201593.2
2014-Nov-17 16:31N 46°05' W 122°56'34560.8
2014-Nov-17 16:27N 45°33' W 122°42'62638.2
2014-Nov-17 16:27N 45°37' W 122°48'15282.4
2014-Nov-17 16:24N 45°52' W 122°48'1517.5
2014-Nov-17 15:33N 45°37' W 122°48'157623.7
2014-Nov-17 15:33N 45°52' W 122°48'321239.4
2014-Nov-17 15:31N 46°12' W 123°23'49686.7
2014-Nov-17 15:27N 45°33' W 122°42'34871.4
2014-Nov-17 15:25N 46°05' W 122°56'1416.7
2014-Nov-17 14:33N 45°52' W 122°48'321440.7
2014-Nov-17 14:32N 46°12' W 123°23'431442.5
2014-Nov-17 14:30N 45°37' W 122°48'29339.5
2014-Nov-17 14:25N 46°05' W 122°56'2933.3
2014-Nov-17 13:33N 45°37' W 122°48'1510677.4
2014-Nov-17 13:33N 45°52' W 122°48'14106.5
2014-Nov-17 13:25N 46°05' W 122°56'20555.2
2014-Nov-17 13:23N 46°12' W 123°23'4351.9
2014-Nov-17 12:33N 45°37' W 122°48'1513341.4
2014-Nov-17 12:33N 45°52' W 122°48'321372.3
2014-Nov-17 12:32N 46°12' W 123°23'20324.3
2014-Nov-17 12:28N 46°05' W 122°56'2931.4
2014-Nov-17 11:33N 45°37' W 122°48'431484.0
2014-Nov-17 11:31N 46°12' W 123°23'321372.0
2014-Nov-17 11:30N 45°52' W 122°48'14394.3
2014-Nov-17 11:28N 46°05' W 122°56'1415.8
2014-Nov-17 10:33N 45°52' W 122°48'321557.4
2014-Nov-17 10:32N 46°12' W 123°23'201242.1
2014-Nov-17 10:31N 46°05' W 122°56'293686.4
2014-Nov-17 10:30N 45°37' W 122°48'1515.6
2014-Nov-17 09:33N 45°52' W 122°48'158897.9
2014-Nov-17 09:33N 45°37' W 122°48'29737.3
2014-Nov-17 09:31N 46°05' W 122°56'2053.1
2014-Nov-17 09:08N 46°12' W 123°23'3255.2
2014-Nov-17 08:33N 45°52' W 122°48'14448.7
2014-Nov-17 08:31N 46°05' W 122°56'20491.9
2014-Nov-17 08:28N 46°12' W 123°23'432004.3
2014-Nov-17 08:27N 45°37' W 122°48'1516.5
2014-Nov-17 07:33N 45°52' W 122°48'155931.9
2014-Nov-17 07:33N 45°37' W 122°48'431953.6
2014-Nov-17 07:32N 46°12' W 123°23'201526.8
2014-Nov-17 07:31N 46°05' W 122°56'1415.0
2014-Nov-17 06:33N 45°52' W 122°48'14388.5
2014-Nov-17 06:31N 46°05' W 122°56'29258.0
2014-Nov-17 06:24N 45°37' W 122°48'43340.7
2014-Nov-17 06:17N 46°12' W 123°23'4358.8
2014-Nov-17 05:33N 45°37' W 122°48'29819.0
2014-Nov-17 05:31N 46°05' W 122°56'14217.8
2014-Nov-17 05:27N 45°52' W 122°48'32268.7
2014-Nov-17 05:20N 46°12' W 123°23'49178.1
2014-Nov-17 05:03N 45°33' W 122°42'4992.0
2014-Nov-17 04:32N 46°12' W 123°23'201628.6
2014-Nov-17 04:31N 46°05' W 122°56'14216.9
2014-Nov-17 04:27N 45°52' W 122°48'15158.0
2014-Nov-17 04:21N 45°37' W 122°48'1518.5
2014-Nov-17 03:33N 45°52' W 122°48'155931.9
2014-Nov-17 03:33N 45°37' W 122°48'432057.8
2014-Nov-17 03:32N 46°12' W 123°23'201559.3
2014-Nov-17 03:31N 46°05' W 122°56'1415.0
2014-Nov-17 02:33N 45°52' W 122°48'321372.0
2014-Nov-17 02:32N 46°12' W 123°23'201526.8
2014-Nov-17 02:31N 46°05' W 122°56'29469.1
2014-Nov-17 02:27N 45°37' W 122°48'1516.5
2014-Nov-17 01:33N 45°52' W 122°48'321266.6
2014-Nov-17 01:32N 46°12' W 123°23'201495.6
2014-Nov-17 01:31N 46°05' W 122°56'292789.7
2014-Nov-17 01:30N 45°37' W 122°48'1515.6
2014-Nov-17 00:33N 45°52' W 122°48'321252.8
2014-Nov-17 00:32N 46°12' W 123°23'20307.9
2014-Nov-17 00:28N 46°05' W 122°56'294915.2
2014-Nov-17 00:27N 45°37' W 122°48'0 0.0
2014-Nov-16 23:33N 45°37' W 122°48'157626.7
2014-Nov-16 23:33N 45°52' W 122°48'14340.2
2014-Nov-16 23:31N 46°05' W 122°56'20247.6
2014-Nov-16 23:26N 46°12' W 123°23'49178.5
2014-Nov-16 23:09N 45°33' W 122°42'1932.0
2014-Nov-16 22:33N 45°52' W 122°48'156673.4
2014-Nov-16 22:33N 45°37' W 122°48'431929.1
2014-Nov-16 22:32N 46°12' W 123°23'201465.7
2014-Nov-16 22:31N 46°05' W 122°56'2929.9
2014-Nov-16 21:33N 45°37' W 122°48'431624.5
2014-Nov-16 21:32N 46°12' W 123°23'201465.7
2014-Nov-16 21:31N 46°05' W 122°56'141301.6
2014-Nov-16 21:30N 45°52' W 122°48'1963.4
2014-Nov-16 21:12N 45°33' W 122°42'6 9.1
2014-Nov-16 20:33N 45°37' W 122°48'15145.5
2014-Nov-16 20:27N 45°52' W 122°48'321309.6
2014-Nov-16 20:25N 46°12' W 123°23'201465.7
2014-Nov-16 20:25N 46°05' W 122°56'34155.7
2014-Nov-16 20:12N 45°33' W 122°42'1930.0
2014-Nov-16 19:33N 45°52' W 122°48'321239.4
2014-Nov-16 19:31N 46°12' W 123°23'201495.8
2014-Nov-16 19:31N 46°05' W 122°56'293035.2
2014-Nov-16 19:30N 45°37' W 122°48'6878.8
2014-Nov-16 19:30N 45°33' W 122°42'1920.5
2014-Nov-16 18:33N 45°52' W 122°48'194640.1
2014-Nov-16 18:33N 45°33' W 122°42'492273.9
2014-Nov-16 18:31N 46°12' W 123°23'201495.6
2014-Nov-16 18:31N 46°05' W 122°56'29278.2
2014-Nov-16 18:24N 45°37' W 122°48'1517.3
2014-Nov-16 17:33N 45°52' W 122°48'194094.2
2014-Nov-16 17:33N 45°33' W 122°42'492334.5
2014-Nov-16 17:31N 46°12' W 123°23'201559.3
2014-Nov-16 17:31N 46°05' W 122°56'29180.1
2014-Nov-16 17:21N 45°37' W 122°48'4351.8
2014-Nov-16 16:31N 46°12' W 123°23'201465.7
2014-Nov-16 16:31N 46°05' W 122°56'293035.2
2014-Nov-16 16:30N 45°37' W 122°48'15285.5
2014-Nov-16 16:27N 45°52' W 122°48'19186.1
2014-Nov-16 16:21N 45°33' W 122°42'6 7.4
2014-Nov-16 15:33N 45°37' W 122°48'431624.5
2014-Nov-16 15:31N 46°12' W 123°23'201409.3
2014-Nov-16 15:31N 46°05' W 122°56'14239.9
2014-Nov-16 15:27N 45°52' W 122°48'1994.2
2014-Nov-16 15:15N 45°33' W 122°42'1927.8
2014-Nov-16 14:33N 45°52' W 122°48'194350.1
2014-Nov-16 14:33N 45°33' W 122°42'492274.1
2014-Nov-16 14:31N 46°12' W 123°23'201495.6
2014-Nov-16 14:31N 46°05' W 122°56'29263.3
2014-Nov-16 14:24N 45°37' W 122°48'1517.4
2014-Nov-16 13:33N 45°52' W 122°48'194095.4
2014-Nov-16 13:33N 45°33' W 122°42'492304.1
2014-Nov-16 13:31N 46°12' W 123°23'43351.6
2014-Nov-16 13:24N 45°37' W 122°48'29149.8
2014-Nov-16 13:13N 46°05' W 122°56'1421.9
2014-Nov-16 12:33N 45°52' W 122°48'321213.1
2014-Nov-16 12:31N 46°12' W 123°23'201559.3
2014-Nov-16 12:31N 46°05' W 122°56'29263.9
2014-Nov-16 12:24N 45°37' W 122°48'659.6
2014-Nov-16 12:18N 45°33' W 122°42'4962.4
2014-Nov-16 11:31N 46°12' W 123°23'201495.6
2014-Nov-16 11:31N 46°05' W 122°56'14238.7
2014-Nov-16 11:27N 45°52' W 122°48'19416.8
2014-Nov-16 11:24N 45°33' W 122°42'6112.8
2014-Nov-16 11:21N 45°37' W 122°48'0 0.0
2014-Nov-16 10:33N 45°37' W 122°48'29678.9
2014-Nov-16 10:31N 46°05' W 122°56'141445.7
2014-Nov-16 10:30N 45°52' W 122°48'32425.3
2014-Nov-16 10:25N 46°12' W 123°23'49616.6
2014-Nov-16 10:21N 45°33' W 122°42'3440.3
2014-Nov-16 09:31N 46°05' W 122°56'293329.7
2014-Nov-16 09:30N 45°37' W 122°48'158897.9
2014-Nov-16 09:30N 45°52' W 122°48'32419.1
2014-Nov-16 09:25N 46°12' W 123°23'49623.1
2014-Nov-16 09:21N 45°33' W 122°42'6 7.4
2014-Nov-16 08:33N 45°37' W 122°48'158897.9
2014-Nov-16 08:33N 45°52' W 122°48'193867.9
2014-Nov-16 08:33N 45°33' W 122°42'34961.3
2014-Nov-16 08:31N 46°05' W 122°56'20109.2
2014-Nov-16 08:19N 46°12' W 123°23'4355.6
2014-Nov-16 07:33N 45°37' W 122°48'431456.0
2014-Nov-16 07:31N 46°12' W 123°23'201495.6
2014-Nov-16 07:31N 46°05' W 122°56'34205.0
2014-Nov-16 07:21N 45°33' W 122°42'19202.4
2014-Nov-16 07:15N 45°52' W 122°48'1521.2
2014-Nov-16 06:33N 45°37' W 122°48'157623.7
2014-Nov-16 06:33N 45°52' W 122°48'321226.2
2014-Nov-16 06:31N 46°12' W 123°23'201465.7
2014-Nov-16 06:31N 46°05' W 122°56'34522.0
2014-Nov-16 06:27N 45°33' W 122°42'6 6.6
2014-Nov-16 05:33N 45°37' W 122°48'431470.0
2014-Nov-16 05:31N 46°12' W 123°23'201495.8
2014-Nov-16 05:31N 46°05' W 122°56'14243.2
2014-Nov-16 05:27N 45°52' W 122°48'1963.4
2014-Nov-16 05:09N 45°33' W 122°42'1932.5
2014-Nov-16 04:33N 45°52' W 122°48'194095.4
2014-Nov-16 04:33N 45°33' W 122°42'34939.0
2014-Nov-16 04:31N 46°05' W 122°56'20237.2
2014-Nov-16 04:25N 46°12' W 123°23'43350.8
2014-Nov-16 04:18N 45°37' W 122°48'1519.7
2014-Nov-16 03:33N 45°52' W 122°48'321176.0
2014-Nov-16 03:31N 46°12' W 123°23'201526.8
2014-Nov-16 03:31N 46°05' W 122°56'29267.4
2014-Nov-16 03:24N 45°37' W 122°48'637.3
2014-Nov-16 03:15N 45°33' W 122°42'6 8.5
2014-Nov-16 02:33N 45°37' W 122°48'158894.3
2014-Nov-16 02:33N 45°52' W 122°48'14349.4
2014-Nov-16 02:31N 46°05' W 122°56'20238.7
2014-Nov-16 02:25N 46°12' W 123°23'49273.2
2014-Nov-16 02:15N 45°33' W 122°42'6 8.4
2014-Nov-16 01:33N 45°37' W 122°48'431470.0
2014-Nov-16 01:31N 46°12' W 123°23'201495.6
2014-Nov-16 01:31N 46°05' W 122°56'1440.3
2014-Nov-16 01:09N 45°52' W 122°48'3251.0
2014-Nov-16 00:31N 46°12' W 123°23'432114.4
2014-Nov-16 00:30N 45°37' W 122°48'158897.9
2014-Nov-16 00:30N 45°52' W 122°48'14146.7
2014-Nov-16 00:24N 46°05' W 122°56'2933.7
2014-Nov-15 23:33N 45°37' W 122°48'431456.0
2014-Nov-15 23:31N 46°12' W 123°23'321422.8
2014-Nov-15 23:30N 45°52' W 122°48'19357.0
2014-Nov-15 23:27N 45°33' W 122°42'3437.7
2014-Nov-15 22:33N 46°05' W 122°56'29560.9
2014-Nov-15 22:30N 45°37' W 122°48'158897.9
2014-Nov-15 22:30N 45°52' W 122°48'32407.2
2014-Nov-15 22:25N 46°12' W 123°23'49176.5
2014-Nov-15 22:09N 45°33' W 122°42'3456.6
2014-Nov-15 21:33N 46°05' W 122°56'20691.4
2014-Nov-15 21:31N 46°12' W 123°23'432114.1
2014-Nov-15 21:30N 45°37' W 122°48'1513346.8
2014-Nov-15 21:30N 45°52' W 122°48'1515.7
2014-Nov-15 20:33N 45°37' W 122°48'2914745.7
2014-Nov-15 20:33N 46°05' W 122°56'20832.8
2014-Nov-15 20:32N 46°12' W 123°23'32256.7
2014-Nov-15 20:24N 45°52' W 122°48'1417.0
2014-Nov-15 19:33N 46°05' W 122°56'20704.7
2014-Nov-15 19:31N 46°12' W 123°23'43607.6
2014-Nov-15 19:27N 45°37' W 122°48'15146.7
2014-Nov-15 19:21N 45°52' W 122°48'194350.1
2014-Nov-15 19:21N 45°33' W 122°42'6 7.4
2014-Nov-15 18:33N 45°37' W 122°48'1510677.4
2014-Nov-15 18:33N 45°52' W 122°48'14294.0
2014-Nov-15 18:30N 46°05' W 122°56'346055.2
2014-Nov-15 18:30N 45°33' W 122°42'49278.8
2014-Nov-15 18:19N 46°12' W 123°23'0 0.0
2014-Nov-15 17:31N 46°12' W 123°23'432236.7
2014-Nov-15 17:30N 45°37' W 122°48'29557.8
2014-Nov-15 17:27N 46°05' W 122°56'1426022.1
2014-Nov-15 17:27N 45°52' W 122°48'19353.3
2014-Nov-15 17:24N 45°33' W 122°42'6 6.9
2014-Nov-15 16:33N 45°37' W 122°48'1510681.8
2014-Nov-15 16:33N 45°52' W 122°48'142001.7
2014-Nov-15 16:33N 46°05' W 122°56'20283.0
2014-Nov-15 16:28N 46°12' W 123°23'4346.6
2014-Nov-15 15:33N 45°37' W 122°48'157623.7
2014-Nov-15 15:33N 45°52' W 122°48'142263.7
2014-Nov-15 15:33N 46°05' W 122°56'20883.0
2014-Nov-15 15:31N 46°12' W 123°23'4344.3
2014-Nov-15 14:33N 45°37' W 122°48'156673.4
2014-Nov-15 14:33N 45°52' W 122°48'142082.6
2014-Nov-15 14:33N 46°05' W 122°56'20916.1
2014-Nov-15 14:31N 46°12' W 123°23'3233.0
2014-Nov-15 13:33N 45°52' W 122°48'141859.4
2014-Nov-15 13:33N 46°05' W 122°56'20927.7
2014-Nov-15 13:31N 46°12' W 123°23'43619.9
2014-Nov-15 13:27N 45°37' W 122°48'0 0.0
2014-Nov-15 12:33N 45°37' W 122°48'1510673.1
2014-Nov-15 12:33N 45°52' W 122°48'321130.0
2014-Nov-15 12:31N 46°12' W 123°23'20350.6
2014-Nov-15 12:28N 46°05' W 122°56'1415.8
2014-Nov-15 11:33N 45°52' W 122°48'14400.3
2014-Nov-15 11:31N 46°05' W 122°56'20105.0
2014-Nov-15 11:19N 46°12' W 123°23'43363.2
2014-Nov-15 11:12N 45°37' W 122°48'1522.7
2014-Nov-15 10:33N 45°52' W 122°48'321097.7
2014-Nov-15 10:31N 46°12' W 123°23'202818.7
2014-Nov-15 10:31N 46°05' W 122°56'29462.8
2014-Nov-15 10:27N 45°37' W 122°48'1516.5
2014-Nov-15 09:33N 45°52' W 122°48'321057.4
2014-Nov-15 09:31N 46°12' W 123°23'203186.3
2014-Nov-15 09:31N 46°05' W 122°56'29460.8
2014-Nov-15 09:27N 45°37' W 122°48'1516.5
2014-Nov-15 08:33N 45°52' W 122°48'14397.4
2014-Nov-15 08:31N 46°05' W 122°56'292715.7
2014-Nov-15 08:30N 45°37' W 122°48'43321.5
2014-Nov-15 08:22N 46°12' W 123°23'4352.4
2014-Nov-15 07:33N 45°37' W 122°48'15285.5
2014-Nov-15 07:30N 45°52' W 122°48'321077.2
2014-Nov-15 07:28N 46°12' W 123°23'20361.0
2014-Nov-15 07:25N 46°05' W 122°56'2933.3
2014-Nov-15 06:33N 45°37' W 122°48'431342.0
2014-Nov-15 06:31N 46°12' W 123°23'321623.4
2014-Nov-15 06:30N 45°52' W 122°48'14166.3
2014-Nov-15 06:25N 46°05' W 122°56'2933.3
2014-Nov-15 05:33N 45°37' W 122°48'155931.9
2014-Nov-15 05:33N 45°52' W 122°48'321038.4
2014-Nov-15 05:31N 46°12' W 123°23'203664.3
2014-Nov-15 05:31N 46°05' W 122°56'1415.0
2014-Nov-15 04:33N 45°52' W 122°48'321047.7
2014-Nov-15 04:31N 46°12' W 123°23'432374.6
2014-Nov-15 04:30N 45°37' W 122°48'29737.3
2014-Nov-15 04:28N 46°05' W 122°56'1415.8
2014-Nov-15 03:33N 45°52' W 122°48'321047.7
2014-Nov-15 03:31N 46°12' W 123°23'202931.4
2014-Nov-15 03:31N 46°05' W 122°56'292789.1
2014-Nov-15 03:30N 45°37' W 122°48'4343.6
2014-Nov-15 02:31N 46°12' W 123°23'203331.5
2014-Nov-15 02:31N 46°05' W 122°56'29467.1
2014-Nov-15 02:27N 45°37' W 122°48'1510677.4
2014-Nov-15 02:27N 45°52' W 122°48'0 0.0
2014-Nov-15 01:33N 45°52' W 122°48'321020.0
2014-Nov-15 01:31N 46°12' W 123°23'203331.2
2014-Nov-15 01:31N 46°05' W 122°56'29471.3
2014-Nov-15 01:27N 45°37' W 122°48'1516.4
2014-Nov-15 00:33N 45°52' W 122°48'321029.1
2014-Nov-15 00:31N 46°12' W 123°23'203186.3
2014-Nov-15 00:31N 46°05' W 122°56'2969.9
2014-Nov-15 00:06N 45°37' W 122°48'0 0.0
2014-Nov-14 23:33N 45°37' W 122°48'158897.9
2014-Nov-14 23:33N 45°52' W 122°48'321029.0
2014-Nov-14 23:31N 46°12' W 123°23'20362.8
2014-Nov-14 23:28N 46°05' W 122°56'2931.5
2014-Nov-14 22:33N 45°37' W 122°48'431286.1
2014-Nov-14 22:31N 46°12' W 123°23'203331.2
2014-Nov-14 22:31N 46°05' W 122°56'141182.8
2014-Nov-14 22:30N 45°52' W 122°48'0 0.0
2014-Nov-14 21:33N 45°52' W 122°48'  
Track history (hours):
 
Tides and Currents Weather Stations Pressure Air Temp Water Temp Dewpoint Dewpoint Depression Visibility Wind Speed Wind Dir Waves Ship Positions

Zarling

Owner: Clean Rivers Co-op, Portland, OR. More information available from US FCC via Universal Licensing System.

Last reported at 2014-Nov-24 21:32 UTC. Time now 2014-Nov-24 21:39 UTC.
Position N 46°12' W 123°23'.

Length 12 m.

Type: Pollution control. MMSI: 3699126.

Date/timePositionNaut miles runAvg speedWind from/ knotsBaromVisibWave heightAir tempDewpointWater temp
2014-Nov-24 21:32N 46°12' W 123°23'205637.4
2014-Nov-24 21:32N 46°05' W 122°56'29175.2
2014-Nov-24 21:22N 45°37' W 122°48'1597.2
2014-Nov-24 21:13N 45°52' W 122°48'1521.3
2014-Nov-24 20:31N 45°37' W 122°48'157629.8
2014-Nov-24 20:31N 45°52' W 122°48'321038.3
2014-Nov-24 20:29N 46°12' W 123°23'205637.4
2014-Nov-24 20:29N 46°05' W 122°56'1415.0
2014-Nov-24 19:31N 45°52' W 122°48'14419.9
2014-Nov-24 19:29N 46°05' W 122°56'29450.7
2014-Nov-24 19:25N 45°37' W 122°48'43519.7
2014-Nov-24 19:20N 46°12' W 123°23'4352.4
2014-Nov-24 18:31N 45°37' W 122°48'15287.0
2014-Nov-24 18:28N 45°52' W 122°48'14171.8
2014-Nov-24 18:23N 46°05' W 122°56'20103.7
2014-Nov-24 18:11N 46°12' W 123°23'3247.8
2014-Nov-24 17:31N 45°52' W 122°48'321047.7
2014-Nov-24 17:29N 46°12' W 123°23'432489.2
2014-Nov-24 17:28N 45°37' W 122°48'29775.9
2014-Nov-24 17:26N 46°05' W 122°56'2931.4
2014-Nov-24 16:31N 45°37' W 122°48'1513346.8
2014-Nov-24 16:31N 45°52' W 122°48'14406.6
2014-Nov-24 16:29N 46°05' W 122°56'272374.2
2014-Nov-24 16:28N 45°39' W 122°46'42228.1
2014-Nov-24 16:17N 46°12' W 123°23'2027.1
2014-Nov-24 15:32N 46°05' W 122°56'292106.5
2014-Nov-24 15:31N 45°37' W 122°48'157626.7
2014-Nov-24 15:31N 45°52' W 122°48'32176.8
2014-Nov-24 15:20N 46°12' W 123°23'0 0.0
2014-Nov-24 14:32N 46°12' W 123°23'433355.4
2014-Nov-24 14:31N 45°37' W 122°48'157626.7
2014-Nov-24 14:31N 45°52' W 122°48'14410.0
2014-Nov-24 14:29N 46°05' W 122°56'2021.4
2014-Nov-24 13:32N 46°12' W 123°23'322216.5
2014-Nov-24 13:31N 45°52' W 122°48'14406.8
2014-Nov-24 13:29N 46°05' W 122°56'29253.6
2014-Nov-24 13:22N 45°37' W 122°48'4351.3
2014-Nov-24 12:32N 46°12' W 123°23'322058.0
2014-Nov-24 12:31N 45°52' W 122°48'14169.5
2014-Nov-24 12:26N 46°05' W 122°56'29134.8
2014-Nov-24 12:13N 45°37' W 122°48'1521.1
2014-Nov-24 11:31N 45°52' W 122°48'14406.6
2014-Nov-24 11:29N 46°05' W 122°56'292293.8
2014-Nov-24 11:28N 45°37' W 122°48'43486.9
2014-Nov-24 11:23N 46°12' W 123°23'0 0.0
2014-Nov-24 10:29N 46°12' W 123°23'433284.0
2014-Nov-24 10:28N 45°37' W 122°48'29326.6
2014-Nov-24 10:23N 46°05' W 122°56'14226.3
2014-Nov-24 10:19N 45°52' W 122°48'0 0.0
2014-Nov-24 09:31N 45°52' W 122°48'14403.6
2014-Nov-24 09:29N 46°05' W 122°56'292345.4
2014-Nov-24 09:28N 45°37' W 122°48'431143.2
2014-Nov-24 09:26N 46°12' W 123°23'4347.0
2014-Nov-24 08:31N 45°37' W 122°48'156670.7
2014-Nov-24 08:31N 45°52' W 122°48'14403.6
2014-Nov-24 08:29N 46°05' W 122°56'2073285.7
2014-Nov-24 08:29N 46°12' W 123°23'0 0.0
2014-Nov-24 07:32N 46°12' W 123°23'433355.0
2014-Nov-24 07:31N 45°37' W 122°48'158894.3
2014-Nov-24 07:31N 45°52' W 122°48'14400.5
2014-Nov-24 07:29N 46°05' W 122°56'2021.4
2014-Nov-24 06:32N 46°12' W 123°23'322305.2
2014-Nov-24 06:31N 45°52' W 122°48'14394.4
2014-Nov-24 06:29N 46°05' W 122°56'292646.1
2014-Nov-24 06:28N 45°37' W 122°48'4345.7
2014-Nov-24 05:32N 46°12' W 123°23'322305.2
2014-Nov-24 05:31N 45°52' W 122°48'15152.1
2014-Nov-24 05:25N 45°37' W 122°48'291810.9
2014-Nov-24 05:24N 46°05' W 122°56'2023.3
2014-Nov-24 04:32N 46°12' W 123°23'20771.4
2014-Nov-24 04:31N 46°05' W 122°56'29825.6
2014-Nov-24 04:28N 45°37' W 122°48'156670.7
2014-Nov-24 04:28N 45°52' W 122°48'1415.8
2014-Nov-24 03:34N 46°05' W 122°56'20852.2
2014-Nov-24 03:32N 46°12' W 123°23'433858.3
2014-Nov-24 03:31N 45°37' W 122°48'1510677.4
2014-Nov-24 03:31N 45°52' W 122°48'1415.0
2014-Nov-24 02:33N 46°05' W 122°56'20893.7
2014-Nov-24 02:32N 46°12' W 123°23'433674.6
2014-Nov-24 02:31N 45°37' W 122°48'157626.7
2014-Nov-24 02:31N 45°52' W 122°48'1946.4
2014-Nov-24 02:06N 45°33' W 122°42'3461.5
2014-Nov-24 01:33N 46°05' W 122°56'20872.4
2014-Nov-24 01:32N 46°12' W 123°23'43386.8
2014-Nov-24 01:25N 45°37' W 122°48'157626.7
2014-Nov-24 01:25N 45°52' W 122°48'19171.9
2014-Nov-24 01:19N 45°33' W 122°42'3444.8
2014-Nov-24 00:33N 46°05' W 122°56'29853.1
2014-Nov-24 00:31N 45°37' W 122°48'157626.7
2014-Nov-24 00:31N 45°52' W 122°48'32233.8
2014-Nov-24 00:23N 46°12' W 123°23'2024.6
2014-Nov-23 23:33N 46°05' W 122°56'20893.7
2014-Nov-23 23:32N 46°12' W 123°23'433957.7
2014-Nov-23 23:31N 45°37' W 122°48'158901.5
2014-Nov-23 23:31N 45°52' W 122°48'3232.4
2014-Nov-23 22:32N 46°12' W 123°23'434061.4
2014-Nov-23 22:31N 45°37' W 122°48'291749.1
2014-Nov-23 22:30N 46°05' W 122°56'14169.0
2014-Nov-23 22:25N 45°52' W 122°48'1516.5
2014-Nov-23 21:31N 45°37' W 122°48'158894.3
2014-Nov-23 21:31N 45°52' W 122°48'19312.1
2014-Nov-23 21:28N 45°33' W 122°42'3412112.5
2014-Nov-23 21:27N 46°05' W 122°56'20165.4
2014-Nov-23 21:20N 46°12' W 123°23'2026.2
2014-Nov-23 20:33N 46°05' W 122°56'29860.2
2014-Nov-23 20:31N 45°37' W 122°48'158897.9
2014-Nov-23 20:31N 45°52' W 122°48'32860.1
2014-Nov-23 20:29N 46°12' W 123°23'49129.3
2014-Nov-23 20:07N 45°33' W 122°42'3461.0
2014-Nov-23 19:33N 46°05' W 122°56'20893.7
2014-Nov-23 19:32N 46°12' W 123°23'43704.8
2014-Nov-23 19:28N 45°37' W 122°48'1513346.8
2014-Nov-23 19:28N 45°52' W 122°48'1515.6
2014-Nov-23 18:32N 45°37' W 122°48'15284.0
2014-Nov-23 18:28N 45°52' W 122°48'141020.5
2014-Nov-23 18:28N 46°05' W 122°56'34692.1
2014-Nov-23 18:25N 45°33' W 122°42'49278.4
2014-Nov-23 18:14N 46°12' W 123°23'2028.0
2014-Nov-23 17:30N 46°05' W 122°56'20280.8
2014-Nov-23 17:26N 46°12' W 123°23'434061.4
2014-Nov-23 17:25N 45°37' W 122°48'15288.6
2014-Nov-23 17:22N 45°52' W 122°48'19118.4
2014-Nov-23 17:13N 45°33' W 122°42'4972.1
2014-Nov-23 16:32N 46°12' W 123°23'204885.7
2014-Nov-23 16:32N 46°05' W 122°56'294486.9
2014-Nov-23 16:31N 45°37' W 122°48'1513346.8
2014-Nov-23 16:31N 45°52' W 122°48'191338.9
2014-Nov-23 16:31N 45°33' W 122°42'4949.9
2014-Nov-23 15:32N 46°12' W 123°23'205235.2
2014-Nov-23 15:32N 46°05' W 122°56'29516.1
2014-Nov-23 15:29N 45°37' W 122°48'156673.4
2014-Nov-23 15:28N 45°52' W 122°48'1921.1
2014-Nov-23 14:33N 45°33' W 122°42'341331.0
2014-Nov-23 14:32N 46°05' W 122°56'29516.1
2014-Nov-23 14:29N 45°37' W 122°48'1510677.4
2014-Nov-23 14:28N 45°52' W 122°48'32817.4
2014-Nov-23 14:26N 46°12' W 123°23'0 0.0
2014-Nov-23 13:32N 46°12' W 123°23'20377.8
2014-Nov-23 13:29N 46°05' W 122°56'296071.7
2014-Nov-23 13:29N 45°37' W 122°48'15285.5
2014-Nov-23 13:25N 45°52' W 122°48'19115.0
2014-Nov-23 13:15N 45°33' W 122°42'4967.4
2014-Nov-23 12:32N 46°12' W 123°23'204885.7
2014-Nov-23 12:32N 46°05' W 122°56'142169.3
2014-Nov-23 12:31N 45°52' W 122°48'15306.8
2014-Nov-23 12:29N 45°37' W 122°48'6297.1
2014-Nov-23 12:27N 45°33' W 122°42'6 6.3
2014-Nov-23 11:32N 45°37' W 122°48'43469.1
2014-Nov-23 11:26N 46°12' W 123°23'20379.7
2014-Nov-23 11:23N 46°05' W 122°56'14253.9
2014-Nov-23 11:19N 45°52' W 122°48'3240.6
2014-Nov-23 10:32N 46°12' W 123°23'435144.4
2014-Nov-23 10:32N 45°37' W 122°48'158897.9
2014-Nov-23 10:31N 45°52' W 122°48'14333.6
2014-Nov-23 10:29N 46°05' W 122°56'2021.5
2014-Nov-23 09:32N 46°12' W 123°23'205234.7
2014-Nov-23 09:32N 46°05' W 122°56'295431.5
2014-Nov-23 09:32N 45°37' W 122°48'1598.1
2014-Nov-23 09:22N 45°52' W 122°48'19281.8
2014-Nov-23 09:18N 45°33' W 122°42'4963.1
2014-Nov-23 08:32N 46°12' W 123°23'209160.7
2014-Nov-23 08:32N 46°05' W 122°56'294486.9
2014-Nov-23 08:32N 45°37' W 122°48'648.7
2014-Nov-23 08:24N 45°33' W 122°42'19605.4
2014-Nov-23 08:22N 45°52' W 122°48'3238.1
2014-Nov-23 07:32N 46°12' W 123°23'323390.0
2014-Nov-23 07:31N 45°52' W 122°48'14154.0
2014-Nov-23 07:26N 46°05' W 122°56'29273.1
2014-Nov-23 07:20N 45°37' W 122°48'0 0.0
2014-Nov-23 06:32N 45°37' W 122°48'1510673.1
2014-Nov-23 06:31N 45°52' W 122°48'322260.0
2014-Nov-23 06:31N 46°12' W 123°23'20678.6
2014-Nov-23 06:29N 46°05' W 122°56'0 0.0
2014-Nov-23 05:32N 46°05' W 122°56'142603.2
2014-Nov-23 05:32N 45°52' W 122°48'15301.5
2014-Nov-23 05:29N 45°37' W 122°48'43656.7
2014-Nov-23 05:25N 46°12' W 123°23'4910944.2
2014-Nov-23 05:24N 45°33' W 122°42'1921.9
2014-Nov-23 04:31N 45°52' W 122°48'14327.3
2014-Nov-23 04:29N 46°05' W 122°56'20287.4
2014-Nov-23 04:25N 46°12' W 123°23'431330.4
2014-Nov-23 04:23N 45°37' W 122°48'0 0.0
2014-Nov-23 03:32N 45°37' W 122°48'432615.8
2014-Nov-23 03:31N 46°12' W 123°23'32900.4
2014-Nov-23 03:29N 45°52' W 122°48'14153.5
2014-Nov-23 03:23N 46°05' W 122°56'2023.4
2014-Nov-23 02:31N 46°12' W 123°23'20672.3
2014-Nov-23 02:29N 46°05' W 122°56'298599.9
2014-Nov-23 02:29N 45°37' W 122°48'158897.9
2014-Nov-23 02:29N 45°52' W 122°48'1515.6
2014-Nov-23 01:32N 45°37' W 122°48'43632.6
2014-Nov-23 01:28N 46°12' W 123°23'32381.7
2014-Nov-23 01:23N 45°52' W 122°48'14327.4
2014-Nov-23 01:20N 46°05' W 122°56'2024.8
2014-Nov-23 00:31N 46°12' W 123°23'431286.2
2014-Nov-23 00:29N 45°37' W 122°48'157626.7
2014-Nov-23 00:29N 45°52' W 122°48'14100.1
2014-Nov-23 00:20N 46°05' W 122°56'0 0.0
2014-Nov-22 23:32N 46°05' W 122°56'142740.2
2014-Nov-22 23:32N 45°52' W 122°48'322058.2
2014-Nov-22 23:31N 46°12' W 123°23'43517.9
2014-Nov-22 23:26N 45°37' W 122°48'4346.7
2014-Nov-22 22:31N 46°12' W 123°23'32976.7
2014-Nov-22 22:29N 45°52' W 122°48'144003.4
2014-Nov-22 22:28N 46°05' W 122°56'29637.0
2014-Nov-22 22:26N 45°37' W 122°48'1515.6
2014-Nov-22 21:29N 45°52' W 122°48'322022.1
2014-Nov-22 21:28N 46°12' W 123°23'43523.2
2014-Nov-22 21:23N 45°37' W 122°48'29272.3
2014-Nov-22 21:16N 46°05' W 122°56'2938.5
2014-Nov-22 20:32N 45°37' W 122°48'157626.7
2014-Nov-22 20:32N 45°52' W 122°48'322058.2
2014-Nov-22 20:31N 46°12' W 123°23'20538.9
2014-Nov-22 20:28N 46°05' W 122°56'2021.7
2014-Nov-22 19:32N 46°12' W 123°23'201879.1
2014-Nov-22 19:31N 46°05' W 122°56'29625.6
2014-Nov-22 19:29N 45°37' W 122°48'1510677.4
2014-Nov-22 19:29N 45°52' W 122°48'3234.0
2014-Nov-22 18:32N 46°12' W 123°23'323717.6
2014-Nov-22 18:32N 45°52' W 122°48'15306.8
2014-Nov-22 18:29N 45°37' W 122°48'295159.9
2014-Nov-22 18:28N 46°05' W 122°56'2021.7
2014-Nov-22 17:32N 46°12' W 123°23'43274.6
2014-Nov-22 17:23N 45°37' W 122°48'294486.9
2014-Nov-22 17:22N 46°05' W 122°56'14311.6
2014-Nov-22 17:20N 45°52' W 122°48'0 0.0
2014-Nov-22 16:32N 45°52' W 122°48'143469.6
2014-Nov-22 16:31N 46°05' W 122°56'29307.1
2014-Nov-22 16:26N 45°37' W 122°48'43297.9
2014-Nov-22 16:17N 46°12' W 123°23'4356.7
2014-Nov-22 15:32N 45°37' W 122°48'1513346.8
2014-Nov-22 15:32N 45°52' W 122°48'32748.4
2014-Nov-22 15:29N 46°12' W 123°23'201704.3
2014-Nov-22 15:28N 46°05' W 122°56'2021.7
2014-Nov-22 14:32N 46°12' W 123°23'324433.1
2014-Nov-22 14:32N 45°52' W 122°48'15310.4
2014-Nov-22 14:29N 45°37' W 122°48'294487.8
2014-Nov-22 14:28N 46°05' W 122°56'2021.7
2014-Nov-22 13:32N 46°12' W 123°23'323974.0
2014-Nov-22 13:32N 45°52' W 122°48'15308.7
2014-Nov-22 13:29N 45°37' W 122°48'294300.8
2014-Nov-22 13:28N 46°05' W 122°56'2020.6
2014-Nov-22 12:29N 46°12' W 123°23'324268.9
2014-Nov-22 12:29N 45°52' W 122°48'143254.0
2014-Nov-22 12:28N 46°05' W 122°56'29657.5
2014-Nov-22 12:26N 45°37' W 122°48'4348.0
2014-Nov-22 11:32N 46°12' W 123°23'43771.7
2014-Nov-22 11:29N 45°37' W 122°48'156673.4
2014-Nov-22 11:29N 45°52' W 122°48'1493.3
2014-Nov-22 11:19N 46°05' W 122°56'2025.9
2014-Nov-22 10:32N 46°12' W 123°23'437349.1
2014-Nov-22 10:32N 45°37' W 122°48'157626.7
2014-Nov-22 10:32N 45°52' W 122°48'14265.5
2014-Nov-22 10:28N 46°05' W 122°56'2021.7
2014-Nov-22 09:32N 46°12' W 123°23'43274.6
2014-Nov-22 09:23N 45°37' W 122°48'157623.7
2014-Nov-22 09:23N 45°52' W 122°48'142740.2
2014-Nov-22 09:22N 46°05' W 122°56'2024.3
2014-Nov-22 08:32N 46°12' W 123°23'43771.7
2014-Nov-22 08:29N 45°37' W 122°48'156673.4
2014-Nov-22 08:29N 45°52' W 122°48'142739.2
2014-Nov-22 08:28N 46°05' W 122°56'2021.7
2014-Nov-22 07:32N 46°12' W 123°23'325010.7
2014-Nov-22 07:32N 45°52' W 122°48'15305.1
2014-Nov-22 07:29N 45°37' W 122°48'293969.2
2014-Nov-22 07:28N 46°05' W 122°56'2930.5
2014-Nov-22 06:32N 45°37' W 122°48'293686.4
2014-Nov-22 06:31N 46°05' W 122°56'20523.5
2014-Nov-22 06:29N 46°12' W 123°23'324801.9
2014-Nov-22 06:29N 45°52' W 122°48'1515.7
2014-Nov-22 05:32N 45°37' W 122°48'157623.7
2014-Nov-22 05:32N 45°52' W 122°48'32724.9
2014-Nov-22 05:29N 46°12' W 123°23'201665.6
2014-Nov-22 05:28N 46°05' W 122°56'2930.4
2014-Nov-22 04:32N 45°37' W 122°48'293822.2
2014-Nov-22 04:31N 46°05' W 122°56'20534.9
2014-Nov-22 04:29N 46°12' W 123°23'325238.4
2014-Nov-22 04:29N 45°52' W 122°48'3233.9
2014-Nov-22 03:32N 46°12' W 123°23'4312861.0
2014-Nov-22 03:32N 45°37' W 122°48'156673.4
2014-Nov-22 03:32N 45°52' W 122°48'1492.6
2014-Nov-22 03:22N 46°05' W 122°56'1416.2
2014-Nov-22 02:29N 45°52' W 122°48'19818.8
2014-Nov-22 02:27N 45°33' W 122°42'341017.7
2014-Nov-22 02:25N 46°05' W 122°56'29697.3
2014-Nov-22 02:23N 45°37' W 122°48'4350.7
2014-Nov-22 01:32N 46°12' W 123°23'439646.8
2014-Nov-22 01:32N 45°37' W 122°48'157626.7
2014-Nov-22 01:32N 45°52' W 122°48'142479.2
2014-Nov-22 01:31N 46°05' W 122°56'34502.6
2014-Nov-22 01:27N 45°33' W 122°42'0 0.0
2014-Nov-22 00:33N 45°33' W 122°42'677.5
2014-Nov-22 00:29N 45°37' W 122°48'293686.4
2014-Nov-22 00:28N 46°05' W 122°56'20231.2
2014-Nov-22 00:23N 46°12' W 123°23'326067.0
2014-Nov-22 00:23N 45°52' W 122°48'1923.5
2014-Nov-21 23:33N 45°33' W 122°42'6237.0
2014-Nov-21 23:32N 45°37' W 122°48'158897.9
2014-Nov-21 23:32N 45°52' W 122°48'142263.7
2014-Nov-21 23:31N 46°05' W 122°56'20231.9
2014-Nov-21 23:26N 46°12' W 123°23'3235.3
2014-Nov-21 22:32N 45°52' W 122°48'32724.8
2014-Nov-21 22:29N 46°12' W 123°23'4311871.7
2014-Nov-21 22:29N 45°37' W 122°48'29489.1
2014-Nov-21 22:25N 46°05' W 122°56'34126.0
2014-Nov-21 22:09N 45°33' W 122°42'0 0.0
2014-Nov-21 21:32N 45°33' W 122°42'343460.7
2014-Nov-21 21:31N 46°05' W 122°56'14331.5
2014-Nov-21 21:29N 45°52' W 122°48'32724.8
2014-Nov-21 21:26N 46°12' W 123°23'43278.6
2014-Nov-21 21:17N 45°37' W 122°48'4357.5
2014-Nov-21 20:32N 46°12' W 123°23'4312862.4
2014-Nov-21 20:32N 45°37' W 122°48'29179.8
2014-Nov-21 20:22N 46°05' W 122°56'34846.9
2014-Nov-21 20:20N 45°33' W 122°42'196325.5
2014-Nov-21 20:20N 45°52' W 122°48'3240.3
2014-Nov-21 19:32N 46°12' W 123°23'4919456.4
2014-Nov-21 19:32N 45°33' W 122°42'67030.2
2014-Nov-21 19:32N 45°37' W 122°48'29180.5
2014-Nov-21 19:22N 46°05' W 122°56'14156.3
2014-Nov-21 19:17N 45°52' W 122°48'0 0.0
2014-Nov-21 18:32N 45°52' W 122°48'14251.4
2014-Nov-21 18:28N 46°05' W 122°56'29318.5
2014-Nov-21 18:23N 45°37' W 122°48'43291.2
2014-Nov-21 18:14N 46°12' W 123°23'4361.0
2014-Nov-21 17:32N 45°37' W 122°48'29480.0
2014-Nov-21 17:28N 46°05' W 122°56'20234.9
2014-Nov-21 17:23N 46°12' W 123°23'32576.2
2014-Nov-21 17:20N 45°52' W 122°48'1518.6
2014-Nov-21 16:32N 45°37' W 122°48'1510677.4
2014-Nov-21 16:32N 45°52' W 122°48'32690.1
2014-Nov-21 16:29N 46°12' W 123°23'201704.3
2014-Nov-21 16:28N 46°05' W 122°56'1415.4
2014-Nov-21 15:32N 45°52' W 122°48'32698.5
2014-Nov-21 15:29N 46°12' W 123°23'4319293.7
2014-Nov-21 15:29N 45°37' W 122°48'292949.1
2014-Nov-21 15:28N 46°05' W 122°56'0 0.0
2014-Nov-21 14:31N 46°05' W 122°56'29316.6
2014-Nov-21 14:26N 45°37' W 122°48'15287.0
2014-Nov-21 14:23N 45°52' W 122°48'32331.2
2014-Nov-21 14:17N 46°12' W 123°23'0 0.0
2014-Nov-21 13:29N 46°12' W 123°23'327684.0
2014-Nov-21 13:29N 45°52' W 122°48'14247.9
2014-Nov-21 13:25N 46°05' W 122°56'29716.8
2014-Nov-21 13:23N 45°37' W 122°48'4347.8
2014-Nov-21 12:29N 46°12' W 123°23'201704.3
2014-Nov-21 12:28N 46°05' W 122°56'29711.9
2014-Nov-21 12:26N 45°37' W 122°48'1510677.4
2014-Nov-21 12:26N 45°52' W 122°48'1415.9
2014-Nov-21 11:31N 46°05' W 122°56'20551.0
2014-Nov-21 11:29N 46°12' W 123°23'4317148.0
2014-Nov-21 11:29N 45°37' W 122°48'157626.7
2014-Nov-21 11:29N 45°52' W 122°48'1515.6
2014-Nov-21 10:32N 45°37' W 122°48'1513346.8
2014-Nov-21 10:32N 45°52' W 122°48'32682.0
2014-Nov-21 10:29N 46°12' W 123°23'20325.7
2014-Nov-21 10:25N 46°05' W 122°56'1416.2
2014-Nov-21 09:32N 45°52' W 122°48'32694.3
2014-Nov-21 09:29N 46°12' W 123°23'4319293.7
2014-Nov-21 09:29N 45°37' W 122°48'29475.7
2014-Nov-21 09:25N 46°05' W 122°56'0 0.0
2014-Nov-21 08:31N 46°05' W 122°56'29742.4
2014-Nov-21 08:29N 45°37' W 122°48'43881.9
2014-Nov-21 08:26N 46°12' W 123°23'329605.0
2014-Nov-21 08:26N 45°52' W 122°48'0 0.0
2014-Nov-21 07:32N 45°52' W 122°48'32682.0
2014-Nov-21 07:29N 46°12' W 123°23'4338582.9
2014-Nov-21 07:29N 45°37' W 122°48'292646.1
2014-Nov-21 07:28N 46°05' W 122°56'2019.6
2014-Nov-21 06:26N 46°12' W 123°23'4330866.3
2014-Nov-21 06:26N 45°37' W 122°48'157623.7
2014-Nov-21 06:26N 45°52' W 122°48'14244.4
2014-Nov-21 06:22N 46°05' W 122°56'2024.3
2014-Nov-21 05:32N 46°12' W 123°23'43154331.6
2014-Nov-21 05:32N 45°37' W 122°48'156673.4
2014-Nov-21 05:32N 45°52' W 122°48'14243.2
2014-Nov-21 05:28N 46°05' W 122°56'0 0.0
2014-Nov-21 04:33N 46°05' W 122°56'291274.1
2014-Nov-21 04:32N 45°37' W 122°48'158897.9
2014-Nov-21 04:32N 45°52' W 122°48'32670.0
2014-Nov-21 04:29N 46°12' W 123°23'2021.7
2014-Nov-21 03:33N 46°05' W 122°56'292866.6
2014-Nov-21 03:32N 45°37' W 122°48'157626.7
2014-Nov-21 03:32N 45°52' W 122°48'32677.9
2014-Nov-21 03:29N 46°12' W 123°23'3233.6
2014-Nov-21 02:32N 45°52' W 122°48'14379.9
2014-Nov-21 02:30N 46°05' W 122°56'202155.5
2014-Nov-21 02:29N 46°12' W 123°23'4351443.9
2014-Nov-21 02:29N 45°37' W 122°48'2930.3
2014-Nov-21 01:32N 46°05' W 122°56'20396.1
2014-Nov-21 01:29N 46°12' W 123°23'3214407.5
2014-Nov-21 01:29N 45°52' W 122°48'15298.3
2014-Nov-21 01:26N 45°37' W 122°48'2932.0
2014-Nov-21 00:32N 46°05' W 122°56'20379.7
2014-Nov-21 00:29N 46°12' W 123°23'3223051.9
2014-Nov-21 00:29N 45°52' W 122°48'15100.0
2014-Nov-21 00:20N 45°37' W 122°48'2936.0
2014-Nov-20 23:32N 46°05' W 122°56'2911468.9
2014-Nov-20 23:32N 45°37' W 122°48'157626.7
2014-Nov-20 23:32N 45°52' W 122°48'32670.1
2014-Nov-20 23:29N 46°12' W 123°23'4345.1
2014-Nov-20 22:32N 45°37' W 122°48'29295.7
2014-Nov-20 22:26N 46°05' W 122°56'20396.1
2014-Nov-20 22:23N 46°12' W 123°23'3210476.9
2014-Nov-20 22:23N 45°52' W 122°48'3237.7
2014-Nov-20 21:32N 46°12' W 123°23'4377165.8
2014-Nov-20 21:32N 45°37' W 122°48'29610.6
2014-Nov-20 21:29N 46°05' W 122°56'143252.8
2014-Nov-20 21:29N 45°52' W 122°48'1415.3
2014-Nov-20 20:32N 46°05' W 122°56'2912902.5
2014-Nov-20 20:32N 45°37' W 122°48'43154349.4
2014-Nov-20 20:32N 46°12' W 123°23'32619.7
2014-Nov-20 20:29N 45°52' W 122°48'1415.3
2014-Nov-20 19:32N 46°05' W 122°56'209160.7
2014-Nov-20 19:32N 46°12' W 123°23'3219207.6
2014-Nov-20 19:32N 45°52' W 122°48'15308.6
2014-Nov-20 19:29N 45°37' W 122°48'2930.2
2014-Nov-20 18:32N 46°05' W 122°56'2917199.7
2014-Nov-20 18:32N 45°37' W 122°48'43154331.6
2014-Nov-20 18:32N 46°12' W 123°23'32619.6
2014-Nov-20 18:29N 45°52' W 122°48'1415.3
2014-Nov-20 17:32N 46°05' W 122°56'2917199.7
2014-Nov-20 17:32N 45°37' W 122°48'156673.4
2014-Nov-20 17:32N 45°52' W 122°48'32215.4
2014-Nov-20 17:23N 46°12' W 123°23'2024.0
2014-Nov-20 16:32N 46°05' W 122°56'203489.8
2014-Nov-20 16:32N 46°12' W 123°23'43448.7
2014-Nov-20 16:26N 45°37' W 122°48'15288.7
2014-Nov-20 16:23N 45°52' W 122°48'1417.1
2014-Nov-20 15:32N 46°05' W 122°56'2934406.6
2014-Nov-20 15:32N 45°37' W 122°48'437015.9
2014-Nov-20 15:32N 46°12' W 123°23'32331.2
2014-Nov-20 15:26N 45°52' W 122°48'1416.1
2014-Nov-20 14:32N 46°05' W 122°56'29557.9
2014-Nov-20 14:29N 45°37' W 122°48'158897.9
2014-Nov-20 14:29N 45°52' W 122°48'32310.7
2014-Nov-20 14:23N 46°12' W 123°23'2024.1
2014-Nov-20 13:32N 46°05' W 122°56'2934406.6
2014-Nov-20 13:32N 45°37' W 122°48'158897.9
2014-Nov-20 13:32N 45°52' W 122°48'327203.7
2014-Nov-20 13:32N 46°12' W 123°23'2020.5
2014-Nov-20 12:32N 46°05' W 122°56'2917203.3
2014-Nov-20 12:32N 45°37' W 122°48'438575.0
2014-Nov-20 12:32N 46°12' W 123°23'32698.5
2014-Nov-20 12:29N 45°52' W 122°48'1515.6
2014-Nov-20 11:32N 45°37' W 122°48'157623.7
2014-Nov-20 11:32N 45°52' W 122°48'328232.8
2014-Nov-20 11:32N 46°12' W 123°23'20142.3
2014-Nov-20 11:23N 46°05' W 122°56'0 0.0
2014-Nov-20 10:32N 46°05' W 122°56'2925799.6
2014-Nov-20 10:32N 45°37' W 122°48'1517795.7
2014-Nov-20 10:32N 45°52' W 122°48'1414.5
2014-Nov-20 09:32N 46°05' W 122°56'2925799.6
2014-Nov-20 09:32N 45°37' W 122°48'1513346.8
2014-Nov-20 09:32N 45°52' W 122°48'1414.5
2014-Nov-20 08:32N 46°05' W 122°56'2951609.9
2014-Nov-20 08:32N 45°37' W 122°48'15285.6
2014-Nov-20 08:29N 45°52' W 122°48'32206.9
2014-Nov-20 08:20N 46°12' W 123°23'2025.7
2014-Nov-20 07:32N 46°05' W 122°56'14278.4
2014-Nov-20 07:29N 45°52' W 122°48'328866.1
2014-Nov-20 07:29N 46°12' W 123°23'43453.9
2014-Nov-20 07:23N 45°37' W 122°48'2933.7
2014-Nov-20 06:32N 46°05' W 122°56'1410412.8
2014-Nov-20 06:32N 45°52' W 122°48'15150.8
2014-Nov-20 06:26N 45°37' W 122°48'436431.2
2014-Nov-20 06:26N 46°12' W 123°23'2022.8
2014-Nov-20 05:32N 46°05' W 122°56'29103198.5
2014-Nov-20 05:32N 45°37' W 122°48'1513341.4
2014-Nov-20 05:32N 45°52' W 122°48'325239.1
2014-Nov-20 05:32N 46°12' W 123°23'4343.2
2014-Nov-20 04:32N 45°37' W 122°48'1513346.8
2014-Nov-20 04:32N 45°52' W 122°48'327202.9
2014-Nov-20 04:32N 46°12' W 123°23'20215.5
2014-Nov-20 04:26N 46°05' W 122°56'2931.9
2014-Nov-20 03:32N 45°37' W 122°48'1510677.4
2014-Nov-20 03:32N 45°52' W 122°48'32303.3
2014-Nov-20 03:26N 46°12' W 123°23'20219.4
2014-Nov-20 03:20N 46°05' W 122°56'0 0.0
2014-Nov-20 02:32N 46°05' W 122°56'205637.4
2014-Nov-20 02:32N 46°12' W 123°23'43929.8
2014-Nov-20 02:29N 45°37' W 122°48'15287.0
2014-Nov-20 02:26N 45°52' W 122°48'1416.1
2014-Nov-20 01:32N 46°05' W 122°56'1410412.8
2014-Nov-20 01:32N 45°52' W 122°48'325763.0
2014-Nov-20 01:32N 46°12' W 123°23'431002.3
2014-Nov-20 01:29N 45°37' W 122°48'1515.6
2014-Nov-20 00:32N 45°52' W 122°48'325763.0
2014-Nov-20 00:32N 46°12' W 123°23'431015.5
2014-Nov-20 00:29N 45°37' W 122°48'29561.0
2014-Nov-20 00:26N 46°05' W 122°56'2931.9
2014-Nov-19 23:32N 45°37' W 122°48'2920643.9
2014-Nov-19 23:32N 46°05' W 122°56'1417354.7
2014-Nov-19 23:32N 45°52' W 122°48'325763.0
2014-Nov-19 23:32N 46°12' W 123°23'4343.2
2014-Nov-19 22:32N 45°37' W 122°48'2925799.6
2014-Nov-19 22:32N 46°05' W 122°56'202931.4
2014-Nov-19 22:32N 46°12' W 123°23'32339.0
2014-Nov-19 22:26N 45°52' W 122°48'1516.5
2014-Nov-19 21:32N 45°37' W 122°48'435511.8
2014-Nov-19 21:32N 46°12' W 123°23'32720.3
2014-Nov-19 21:29N 45°52' W 122°48'1448.4
2014-Nov-19 21:11N 46°05' W 122°56'2031.0
2014-Nov-19 20:32N 46°12' W 123°23'43470.6
2014-Nov-19 20:26N 45°37' W 122°48'2914745.7
2014-Nov-19 20:26N 46°05' W 122°56'1426032.1
2014-Nov-19 20:26N 45°52' W 122°48'1516.5
2014-Nov-19 19:32N 45°37' W 122°48'157626.7
2014-Nov-19 19:32N 45°52' W 122°48'1452064.2
2014-Nov-19 19:32N 46°05' W 122°56'20361.0
2014-Nov-19 19:29N 46°12' W 123°23'3233.9
2014-Nov-19 18:32N 45°52' W 122°48'324802.5
2014-Nov-19 18:32N 46°12' W 123°23'43224.0
2014-Nov-19 18:20N 45°37' W 122°48'0 0.0
2014-Nov-19 17:32N 45°37' W 122°48'158897.9
2014-Nov-19 17:32N 45°52' W 122°48'325238.4
2014-Nov-19 17:32N 46°12' W 123°23'2069.3
2014-Nov-19 17:14N 46°05' W 122°56'0 0.0
2014-Nov-19 16:32N 46°05' W 122°56'202931.4
2014-Nov-19 16:32N 46°12' W 123°23'32753.3
2014-Nov-19 16:29N 45°52' W 122°48'0 0.0
2014-Nov-19 15:32N 45°52' W 122°48'148677.4
2014-Nov-19 15:32N 46°05' W 122°56'203186.3
2014-Nov-19 15:32N 46°12' W 123°23'431042.9
2014-Nov-19 15:29N 45°37' W 122°48'2930.1
2014-Nov-19 14:32N 46°05' W 122°56'203186.7
2014-Nov-19 14:32N 46°12' W 123°23'43470.6
2014-Nov-19 14:26N 45°37' W 122°48'157626.7
2014-Nov-19 14:26N 45°52' W 122°48'1516.5
2014-Nov-19 13:32N 45°37' W 122°48'435321.8
2014-Nov-19 13:32N 46°12' W 123°23'20460.9
2014-Nov-19 13:29N 46°05' W 122°56'2930.2
2014-Nov-19 12:32N 45°37' W 122°48'157623.7
2014-Nov-19 12:32N 45°52' W 122°48'324433.1
2014-Nov-19 12:32N 46°12' W 123°23'20105.4
2014-Nov-19 12:20N 46°05' W 122°56'1418.1
2014-Nov-19 11:32N 45°52' W 122°48'1410408.8
2014-Nov-19 11:32N 46°05' W 122°56'203053.6
2014-Nov-19 11:32N 46°12' W 123°23'43472.0
2014-Nov-19 11:26N 45°37' W 122°48'1516.6
2014-Nov-19 10:33N 45°52' W 122°48'323717.6
2014-Nov-19 10:32N 46°12' W 123°23'20105.9
2014-Nov-19 10:21N 46°05' W 122°56'29143.9
2014-Nov-19 10:09N 45°37' W 122°48'4370.3
2014-Nov-19 09:32N 46°12' W 123°23'431064.4
2014-Nov-19 09:30N 45°37' W 122°48'158894.3
2014-Nov-19 09:30N 45°52' W 122°48'14143.0
2014-Nov-19 09:23N 46°05' W 122°56'1417.0
2014-Nov-19 08:33N 45°52' W 122°48'323718.1
2014-Nov-19 08:32N 46°12' W 123°23'20444.2
2014-Nov-19 08:29N 46°05' W 122°56'29305.3
2014-Nov-19 08:24N 45°37' W 122°48'1517.3
2014-Nov-19 07:32N 45°52' W 122°48'323974.5
2014-Nov-19 07:32N 46°12' W 123°23'431079.2
2014-Nov-19 07:29N 45°37' W 122°48'29277.4
2014-Nov-19 07:23N 46°05' W 122°56'2934.0
2014-Nov-19 06:33N 45°37' W 122°48'158897.9
2014-Nov-19 06:33N 45°52' W 122°48'1410408.8
2014-Nov-19 06:32N 46°05' W 122°56'20354.0
2014-Nov-19 06:29N 46°12' W 123°23'3234.0
2014-Nov-19 05:33N 45°52' W 122°48'15145.4
2014-Nov-19 05:26N 45°37' W 122°48'29573.3
2014-Nov-19 05:23N 46°05' W 122°56'20366.5
2014-Nov-19 05:20N 46°12' W 123°23'2025.7
2014-Nov-19 04:33N 46°05' W 122°56'146508.0
2014-Nov-19 04:32N 45°52' W 122°48'326780.0
2014-Nov-19 04:32N 46°12' W 123°23'43976.8
2014-Nov-19 04:29N 45°37' W 122°48'1515.6
2014-Nov-19 03:32N 45°52' W 122°48'327202.9
2014-Nov-19 03:32N 46°12' W 123°23'43306.8
2014-Nov-19 03:24N 45°37' W 122°48'29532.0
2014-Nov-19 03:20N 46°05' W 122°56'2935.9
2014-Nov-19 02:32N 45°37' W 122°48'435717.3
2014-Nov-19 02:32N 46°12' W 123°23'32352.5
2014-Nov-19 02:27N 45°52' W 122°48'145206.4
2014-Nov-19 02:26N 46°05' W 122°56'2930.3
2014-Nov-19 01:30N 45°37' W 122°48'296071.7
2014-Nov-19 01:29N 46°05' W 122°56'20336.2
2014-Nov-19 01:26N 46°12' W 123°23'32853.8
2014-Nov-19 01:24N 45°52' W 122°48'1517.5
2014-Nov-19 00:33N 45°37' W 122°48'433764.6
2014-Nov-19 00:32N 46°12' W 123°23'32794.9
2014-Nov-19 00:30N 45°52' W 122°48'14135.6
2014-Nov-19 00:23N 46°05' W 122°56'2934.0
2014-Nov-18 23:33N 45°37' W 122°48'1513341.4
2014-Nov-18 23:33N 45°52' W 122°48'142082.6
2014-Nov-18 23:32N 46°05' W 122°56'206107.1
2014-Nov-18 23:32N 46°12' W 123°23'3232.3
2014-Nov-18 22:33N 45°52' W 122°48'32498.9
2014-Nov-18 22:29N 46°12' W 123°23'20220.1
2014-Nov-18 22:23N 46°05' W 122°56'29314.6
2014-Nov-18 22:18N 45°37' W 122°48'1519.7
2014-Nov-18 21:33N 45°52' W 122°48'323492.3
2014-Nov-18 21:32N 46°12' W 123°23'431086.8
2014-Nov-18 21:30N 45°37' W 122°48'296879.9
2014-Nov-18 21:29N 46°05' W 122°56'1415.2
2014-Nov-18 20:32N 45°52' W 122°48'144004.9
2014-Nov-18 20:32N 46°05' W 122°56'202931.4
2014-Nov-18 20:32N 46°12' W 123°23'431118.5
2014-Nov-18 20:30N 45°37' W 122°48'0 0.0
2014-Nov-18 19:33N 45°37' W 122°48'158897.9
2014-Nov-18 19:32N 45°52' W 122°48'143717.4
2014-Nov-18 19:32N 46°05' W 122°56'20361.0
2014-Nov-18 19:29N 46°12' W 123°23'2021.6
2014-Nov-18 18:32N 46°05' W 122°56'29645.0
2014-Nov-18 18:30N 45°37' W 122°48'15282.5
2014-Nov-18 18:26N 45°52' W 122°48'323292.7
2014-Nov-18 18:26N 46°12' W 123°23'4348.3
2014-Nov-18 17:33N 45°37' W 122°48'157626.7
2014-Nov-18 17:32N 45°52' W 122°48'14271.1
2014-Nov-18 17:29N 46°05' W 122°56'20340.9
2014-Nov-18 17:26N 46°12' W 123°23'49265.7
2014-Nov-18 17:15N 45°33' W 122°42'0 0.0
2014-Nov-18 16:33N 45°33' W 122°42'63015.1
2014-Nov-18 16:33N 45°37' W 122°48'155931.9
2014-Nov-18 16:32N 45°52' W 122°48'322352.0
2014-Nov-18 16:32N 46°12' W 123°23'20172.8
2014-Nov-18 16:25N 46°05' W 122°56'2933.1
2014-Nov-18 15:33N 45°37' W 122°48'29853.2
2014-Nov-18 15:31N 46°05' W 122°56'14826.7
2014-Nov-18 15:29N 45°52' W 122°48'322260.0
2014-Nov-18 15:29N 46°12' W 123°23'491484.0
2014-Nov-18 15:27N 45°33' W 122°42'4953.0
2014-Nov-18 14:32N 46°12' W 123°23'431244.8
2014-Nov-18 14:30N 45°37' W 122°48'29853.1
2014-Nov-18 14:28N 46°05' W 122°56'14839.7
2014-Nov-18 14:27N 45°52' W 122°48'1516.5
2014-Nov-18 13:33N 45°37' W 122°48'1526693.6
2014-Nov-18 13:33N 45°52' W 122°48'32486.3
2014-Nov-18 13:29N 46°12' W 123°23'491577.5
2014-Nov-18 13:27N 45°33' W 122°42'34117.7
2014-Nov-18 13:10N 46°05' W 122°56'3454.7
2014-Nov-18 12:33N 45°33' W 122°42'63010.8
2014-Nov-18 12:33N 45°37' W 122°48'432114.6
2014-Nov-18 12:31N 46°12' W 123°23'20321.5
2014-Nov-18 12:28N 46°05' W 122°56'14788.9
2014-Nov-18 12:26N 45°52' W 122°48'1516.5
2014-Nov-18 11:33N 45°37' W 122°48'156670.7
2014-Nov-18 11:33N 45°52' W 122°48'321670.4
2014-Nov-18 11:31N 46°12' W 123°23'20178.7
2014-Nov-18 11:25N 46°05' W 122°56'34128.2
2014-Nov-18 11:09N 45°33' W 122°42'6 9.7
2014-Nov-18 10:33N 45°37' W 122°48'1510677.4
2014-Nov-18 10:33N 45°52' W 122°48'32268.0
2014-Nov-18 10:25N 46°12' W 123°23'201465.7
2014-Nov-18 10:25N 46°05' W 122°56'34205.6
2014-Nov-18 10:15N 45°33' W 122°42'0 0.0
2014-Nov-18 09:33N 45°33' W 122°42'194971.5
2014-Nov-18 09:33N 45°52' W 122°48'321646.6
2014-Nov-18 09:31N 46°12' W 123°23'20321.4
2014-Nov-18 09:28N 46°05' W 122°56'29173.5
2014-Nov-18 09:18N 45°37' W 122°48'0 0.0
2014-Nov-18 08:33N 45°37' W 122°48'158897.9
2014-Nov-18 08:33N 45°52' W 122°48'321670.2
2014-Nov-18 08:31N 46°12' W 123°23'20178.3
2014-Nov-18 08:25N 46°05' W 122°56'34206.3
2014-Nov-18 08:15N 45°33' W 122°42'6 8.4
2014-Nov-18 07:33N 45°37' W 122°48'15282.5
2014-Nov-18 07:30N 45°52' W 122°48'321623.2
2014-Nov-18 07:28N 46°12' W 123°23'201559.3
2014-Nov-18 07:28N 46°05' W 122°56'34107.3
2014-Nov-18 07:09N 45°33' W 122°42'3452.9
2014-Nov-18 06:31N 46°05' W 122°56'14214.3
2014-Nov-18 06:27N 45°52' W 122°48'321578.9
2014-Nov-18 06:25N 46°12' W 123°23'43336.2
2014-Nov-18 06:18N 45°37' W 122°48'0 0.0
2014-Nov-18 05:33N 45°37' W 122°48'155336.6
2014-Nov-18 05:33N 45°52' W 122°48'321646.6
2014-Nov-18 05:31N 46°12' W 123°23'49641.4
2014-Nov-18 05:27N 45°33' W 122°42'34116.9
2014-Nov-18 05:10N 46°05' W 122°56'2946.7
2014-Nov-18 04:33N 45°37' W 122°48'29806.2
2014-Nov-18 04:31N 46°05' W 122°56'14867.7
2014-Nov-18 04:30N 45°52' W 122°48'321623.4
2014-Nov-18 04:28N 46°12' W 123°23'0 0.0
2014-Nov-18 03:31N 46°12' W 123°23'201437.0
2014-Nov-18 03:31N 46°05' W 122°56'291911.1
2014-Nov-18 03:30N 45°37' W 122°48'15293.3
2014-Nov-18 03:27N 45°52' W 122°48'19198.3
2014-Nov-18 03:21N 45°33' W 122°42'6 7.3
2014-Nov-18 02:33N 45°37' W 122°48'431953.6
2014-Nov-18 02:31N 46°12' W 123°23'32400.2
2014-Nov-18 02:27N 45°52' W 122°48'14433.9
2014-Nov-18 02:25N 46°05' W 122°56'34128.2
2014-Nov-18 02:09N 45°33' W 122°42'6 9.7
2014-Nov-18 01:33N 45°37' W 122°48'1510677.4
2014-Nov-18 01:33N 45°52' W 122°48'321516.6
2014-Nov-18 01:31N 46°12' W 123°23'201526.8
2014-Nov-18 01:31N 46°05' W 122°56'34553.1
2014-Nov-18 01:27N 45°33' W 122°42'1921.4
2014-Nov-18 00:33N 45°52' W 122°48'321536.8
2014-Nov-18 00:31N 46°12' W 123°23'201559.3
2014-Nov-18 00:31N 46°05' W 122°56'34207.4
2014-Nov-18 00:21N 45°33' W 122°42'63515.1
2014-Nov-18 00:21N 45°37' W 122°48'0 0.0
2014-Nov-17 23:33N 45°37' W 122°48'431837.3
2014-Nov-17 23:31N 46°12' W 123°23'20325.7
2014-Nov-17 23:28N 46°05' W 122°56'342883.9
2014-Nov-17 23:27N 45°33' W 122°42'19185.1
2014-Nov-17 23:21N 45°52' W 122°48'1416.4
2014-Nov-17 22:28N 46°05' W 122°56'20563.7
2014-Nov-17 22:25N 46°12' W 123°23'32139.2
2014-Nov-17 22:12N 45°52' W 122°48'15151.7
2014-Nov-17 22:06N 45°37' W 122°48'0 0.0
2014-Nov-17 21:33N 45°37' W 122°48'431734.1
2014-Nov-17 21:31N 46°12' W 123°23'201593.2
2014-Nov-17 21:31N 46°05' W 122°56'14221.5
2014-Nov-17 21:27N 45°52' W 122°48'1957.2
2014-Nov-17 21:06N 45°33' W 122°42'610.5
2014-Nov-17 20:33N 45°37' W 122°48'158897.9
2014-Nov-17 20:33N 45°52' W 122°48'14416.5
2014-Nov-17 20:31N 46°05' W 122°56'20108.9
2014-Nov-17 20:19N 46°12' W 123°23'49660.8
2014-Nov-17 20:15N 45°33' W 122°42'4967.0
2014-Nov-17 19:31N 46°12' W 123°23'201526.8
2014-Nov-17 19:31N 46°05' W 122°56'343028.1
2014-Nov-17 19:30N 45°33' W 122°42'195355.6
2014-Nov-17 19:30N 45°52' W 122°48'15100.5
2014-Nov-17 19:21N 45°37' W 122°48'0 0.0
2014-Nov-17 18:33N 45°37' W 122°48'157626.7
2014-Nov-17 18:33N 45°52' W 122°48'321477.5
2014-Nov-17 18:31N 46°12' W 123°23'201526.8
2014-Nov-17 18:31N 46°05' W 122°56'2020.6
2014-Nov-17 17:31N 46°12' W 123°23'201465.9
2014-Nov-17 17:31N 46°05' W 122°56'292243.4
2014-Nov-17 17:30N 45°37' W 122°48'15145.5
2014-Nov-17 17:24N 45°52' W 122°48'3236.8
2014-Nov-17 16:32N 46°12' W 123°23'201593.2
2014-Nov-17 16:31N 46°05' W 122°56'34560.8
2014-Nov-17 16:27N 45°33' W 122°42'62638.2
2014-Nov-17 16:27N 45°37' W 122°48'15282.4
2014-Nov-17 16:24N 45°52' W 122°48'1517.5
2014-Nov-17 15:33N 45°37' W 122°48'157623.7
2014-Nov-17 15:33N 45°52' W 122°48'321239.4
2014-Nov-17 15:31N 46°12' W 123°23'49686.7
2014-Nov-17 15:27N 45°33' W 122°42'34871.4
2014-Nov-17 15:25N 46°05' W 122°56'1416.7
2014-Nov-17 14:33N 45°52' W 122°48'321440.7
2014-Nov-17 14:32N 46°12' W 123°23'431442.5
2014-Nov-17 14:30N 45°37' W 122°48'29339.5
2014-Nov-17 14:25N 46°05' W 122°56'2933.3
2014-Nov-17 13:33N 45°37' W 122°48'1510677.4
2014-Nov-17 13:33N 45°52' W 122°48'14106.5
2014-Nov-17 13:25N 46°05' W 122°56'20555.2
2014-Nov-17 13:23N 46°12' W 123°23'4351.9
2014-Nov-17 12:33N 45°37' W 122°48'1513341.4
2014-Nov-17 12:33N 45°52' W 122°48'321372.3
2014-Nov-17 12:32N 46°12' W 123°23'20324.3
2014-Nov-17 12:28N 46°05' W 122°56'2931.4
2014-Nov-17 11:33N 45°37' W 122°48'431484.0
2014-Nov-17 11:31N 46°12' W 123°23'321372.0
2014-Nov-17 11:30N 45°52' W 122°48'14394.3
2014-Nov-17 11:28N 46°05' W 122°56'1415.8
2014-Nov-17 10:33N 45°52' W 122°48'321557.4
2014-Nov-17 10:32N 46°12' W 123°23'201242.1
2014-Nov-17 10:31N 46°05' W 122°56'293686.4
2014-Nov-17 10:30N 45°37' W 122°48'1515.6
2014-Nov-17 09:33N 45°52' W 122°48'158897.9
2014-Nov-17 09:33N 45°37' W 122°48'29737.3
2014-Nov-17 09:31N 46°05' W 122°56'2053.1
2014-Nov-17 09:08N 46°12' W 123°23'3255.2
2014-Nov-17 08:33N 45°52' W 122°48'14448.7
2014-Nov-17 08:31N 46°05' W 122°56'20491.9
2014-Nov-17 08:28N 46°12' W 123°23'432004.3
2014-Nov-17 08:27N 45°37' W 122°48'1516.5
2014-Nov-17 07:33N 45°52' W 122°48'155931.9
2014-Nov-17 07:33N 45°37' W 122°48'431953.6
2014-Nov-17 07:32N 46°12' W 123°23'201526.8
2014-Nov-17 07:31N 46°05' W 122°56'1415.0
2014-Nov-17 06:33N 45°52' W 122°48'14388.5
2014-Nov-17 06:31N 46°05' W 122°56'29258.0
2014-Nov-17 06:24N 45°37' W 122°48'43340.7
2014-Nov-17 06:17N 46°12' W 123°23'4358.8
2014-Nov-17 05:33N 45°37' W 122°48'29819.0
2014-Nov-17 05:31N 46°05' W 122°56'14217.8
2014-Nov-17 05:27N 45°52' W 122°48'32268.7
2014-Nov-17 05:20N 46°12' W 123°23'49178.1
2014-Nov-17 05:03N 45°33' W 122°42'4992.0
2014-Nov-17 04:32N 46°12' W 123°23'201628.6
2014-Nov-17 04:31N 46°05' W 122°56'14216.9
2014-Nov-17 04:27N 45°52' W 122°48'15158.0
2014-Nov-17 04:21N 45°37' W 122°48'1518.5
2014-Nov-17 03:33N 45°52' W 122°48'155931.9
2014-Nov-17 03:33N 45°37' W 122°48'432057.8
2014-Nov-17 03:32N 46°12' W 123°23'201559.3
2014-Nov-17 03:31N 46°05' W 122°56'1415.0
2014-Nov-17 02:33N 45°52' W 122°48'321372.0
2014-Nov-17 02:32N 46°12' W 123°23'201526.8
2014-Nov-17 02:31N 46°05' W 122°56'29469.1
2014-Nov-17 02:27N 45°37' W 122°48'1516.5
2014-Nov-17 01:33N 45°52' W 122°48'321266.6
2014-Nov-17 01:32N 46°12' W 123°23'201495.6
2014-Nov-17 01:31N 46°05' W 122°56'292789.7
2014-Nov-17 01:30N 45°37' W 122°48'1515.6
2014-Nov-17 00:33N 45°52' W 122°48'321252.8
2014-Nov-17 00:32N 46°12' W 123°23'20307.9
2014-Nov-17 00:28N 46°05' W 122°56'294915.2
2014-Nov-17 00:27N 45°37' W 122°48'0 0.0
2014-Nov-16 23:33N 45°37' W 122°48'157626.7
2014-Nov-16 23:33N 45°52' W 122°48'14340.2
2014-Nov-16 23:31N 46°05' W 122°56'20247.6
2014-Nov-16 23:26N 46°12' W 123°23'49178.5
2014-Nov-16 23:09N 45°33' W 122°42'1932.0
2014-Nov-16 22:33N 45°52' W 122°48'156673.4
2014-Nov-16 22:33N 45°37' W 122°48'431929.1
2014-Nov-16 22:32N 46°12' W 123°23'201465.7
2014-Nov-16 22:31N 46°05' W 122°56'2929.9
2014-Nov-16 21:33N 45°37' W 122°48'431624.5
2014-Nov-16 21:32N 46°12' W 123°23'201465.7
2014-Nov-16 21:31N 46°05' W 122°56'141301.6
2014-Nov-16 21:30N 45°52' W 122°48'1963.4
2014-Nov-16 21:12N 45°33' W 122°42'6 9.1
2014-Nov-16 20:33N 45°37' W 122°48'15145.5
2014-Nov-16 20:27N 45°52' W 122°48'321309.6
2014-Nov-16 20:25N 46°12' W 123°23'201465.7
2014-Nov-16 20:25N 46°05' W 122°56'34155.7
2014-Nov-16 20:12N 45°33' W 122°42'1930.0
2014-Nov-16 19:33N 45°52' W 122°48'321239.4
2014-Nov-16 19:31N 46°12' W 123°23'201495.8
2014-Nov-16 19:31N 46°05' W 122°56'293035.2
2014-Nov-16 19:30N 45°37' W 122°48'6878.8
2014-Nov-16 19:30N 45°33' W 122°42'1920.5
2014-Nov-16 18:33N 45°52' W 122°48'194640.1
2014-Nov-16 18:33N 45°33' W 122°42'492273.9
2014-Nov-16 18:31N 46°12' W 123°23'201495.6
2014-Nov-16 18:31N 46°05' W 122°56'29278.2
2014-Nov-16 18:24N 45°37' W 122°48'1517.3
2014-Nov-16 17:33N 45°52' W 122°48'194094.2
2014-Nov-16 17:33N 45°33' W 122°42'492334.5
2014-Nov-16 17:31N 46°12' W 123°23'201559.3
2014-Nov-16 17:31N 46°05' W 122°56'29180.1
2014-Nov-16 17:21N 45°37' W 122°48'4351.8
2014-Nov-16 16:31N 46°12' W 123°23'201465.7
2014-Nov-16 16:31N 46°05' W 122°56'293035.2
2014-Nov-16 16:30N 45°37' W 122°48'15285.5
2014-Nov-16 16:27N 45°52' W 122°48'19186.1
2014-Nov-16 16:21N 45°33' W 122°42'6 7.4
2014-Nov-16 15:33N 45°37' W 122°48'431624.5
2014-Nov-16 15:31N 46°12' W 123°23'201409.3
2014-Nov-16 15:31N 46°05' W 122°56'14239.9
2014-Nov-16 15:27N 45°52' W 122°48'1994.2
2014-Nov-16 15:15N 45°33' W 122°42'1927.8
2014-Nov-16 14:33N 45°52' W 122°48'194350.1
2014-Nov-16 14:33N 45°33' W 122°42'492274.1
2014-Nov-16 14:31N 46°12' W 123°23'201495.6
2014-Nov-16 14:31N 46°05' W 122°56'29263.3
2014-Nov-16 14:24N 45°37' W 122°48'1517.4
2014-Nov-16 13:33N 45°52' W 122°48'194095.4
2014-Nov-16 13:33N 45°33' W 122°42'492304.1
2014-Nov-16 13:31N 46°12' W 123°23'43351.6
2014-Nov-16 13:24N 45°37' W 122°48'29149.8
2014-Nov-16 13:13N 46°05' W 122°56'1421.9
2014-Nov-16 12:33N 45°52' W 122°48'321213.1
2014-Nov-16 12:31N 46°12' W 123°23'201559.3
2014-Nov-16 12:31N 46°05' W 122°56'29263.9
2014-Nov-16 12:24N 45°37' W 122°48'659.6
2014-Nov-16 12:18N 45°33' W 122°42'4962.4
2014-Nov-16 11:31N 46°12' W 123°23'201495.6
2014-Nov-16 11:31N 46°05' W 122°56'14238.7
2014-Nov-16 11:27N 45°52' W 122°48'19416.8
2014-Nov-16 11:24N 45°33' W 122°42'6112.8
2014-Nov-16 11:21N 45°37' W 122°48'0 0.0
2014-Nov-16 10:33N 45°37' W 122°48'29678.9
2014-Nov-16 10:31N 46°05' W 122°56'141445.7
2014-Nov-16 10:30N 45°52' W 122°48'32425.3
2014-Nov-16 10:25N 46°12' W 123°23'49616.6
2014-Nov-16 10:21N 45°33' W 122°42'3440.3
2014-Nov-16 09:31N 46°05' W 122°56'293329.7
2014-Nov-16 09:30N 45°37' W 122°48'158897.9
2014-Nov-16 09:30N 45°52' W 122°48'32419.1
2014-Nov-16 09:25N 46°12' W 123°23'49623.1
2014-Nov-16 09:21N 45°33' W 122°42'6 7.4
2014-Nov-16 08:33N 45°37' W 122°48'158897.9
2014-Nov-16 08:33N 45°52' W 122°48'193867.9
2014-Nov-16 08:33N 45°33' W 122°42'34961.3
2014-Nov-16 08:31N 46°05' W 122°56'20109.2
2014-Nov-16 08:19N 46°12' W 123°23'4355.6
2014-Nov-16 07:33N 45°37' W 122°48'431456.0
2014-Nov-16 07:31N 46°12' W 123°23'201495.6
2014-Nov-16 07:31N 46°05' W 122°56'34205.0
2014-Nov-16 07:21N 45°33' W 122°42'19202.4
2014-Nov-16 07:15N 45°52' W 122°48'1521.2
2014-Nov-16 06:33N 45°37' W 122°48'157623.7
2014-Nov-16 06:33N 45°52' W 122°48'321226.2
2014-Nov-16 06:31N 46°12' W 123°23'201465.7
2014-Nov-16 06:31N 46°05' W 122°56'34522.0
2014-Nov-16 06:27N 45°33' W 122°42'6 6.6
2014-Nov-16 05:33N 45°37' W 122°48'431470.0
2014-Nov-16 05:31N 46°12' W 123°23'201495.8
2014-Nov-16 05:31N 46°05' W 122°56'14243.2
2014-Nov-16 05:27N 45°52' W 122°48'1963.4
2014-Nov-16 05:09N 45°33' W 122°42'1932.5
2014-Nov-16 04:33N 45°52' W 122°48'194095.4
2014-Nov-16 04:33N 45°33' W 122°42'34939.0
2014-Nov-16 04:31N 46°05' W 122°56'20237.2
2014-Nov-16 04:25N 46°12' W 123°23'43350.8
2014-Nov-16 04:18N 45°37' W 122°48'1519.7
2014-Nov-16 03:33N 45°52' W 122°48'321176.0
2014-Nov-16 03:31N 46°12' W 123°23'201526.8
2014-Nov-16 03:31N 46°05' W 122°56'29267.4
2014-Nov-16 03:24N 45°37' W 122°48'637.3
2014-Nov-16 03:15N 45°33' W 122°42'6 8.5
2014-Nov-16 02:33N 45°37' W 122°48'158894.3
2014-Nov-16 02:33N 45°52' W 122°48'14349.4
2014-Nov-16 02:31N 46°05' W 122°56'20238.7
2014-Nov-16 02:25N 46°12' W 123°23'49273.2
2014-Nov-16 02:15N 45°33' W 122°42'6 8.4
2014-Nov-16 01:33N 45°37' W 122°48'431470.0
2014-Nov-16 01:31N 46°12' W 123°23'201495.6
2014-Nov-16 01:31N 46°05' W 122°56'1440.3
2014-Nov-16 01:09N 45°52' W 122°48'3251.0
2014-Nov-16 00:31N 46°12' W 123°23'432114.4
2014-Nov-16 00:30N 45°37' W 122°48'158897.9
2014-Nov-16 00:30N 45°52' W 122°48'14146.7
2014-Nov-16 00:24N 46°05' W 122°56'2933.7
2014-Nov-15 23:33N 45°37' W 122°48'431456.0
2014-Nov-15 23:31N 46°12' W 123°23'321422.8
2014-Nov-15 23:30N 45°52' W 122°48'19357.0
2014-Nov-15 23:27N 45°33' W 122°42'3437.7
2014-Nov-15 22:33N 46°05' W 122°56'29560.9
2014-Nov-15 22:30N 45°37' W 122°48'158897.9
2014-Nov-15 22:30N 45°52' W 122°48'32407.2
2014-Nov-15 22:25N 46°12' W 123°23'49176.5
2014-Nov-15 22:09N 45°33' W 122°42'3456.6
2014-Nov-15 21:33N 46°05' W 122°56'20691.4
2014-Nov-15 21:31N 46°12' W 123°23'432114.1
2014-Nov-15 21:30N 45°37' W 122°48'1513346.8
2014-Nov-15 21:30N 45°52' W 122°48'1515.7
2014-Nov-15 20:33N 45°37' W 122°48'2914745.7
2014-Nov-15 20:33N 46°05' W 122°56'20832.8
2014-Nov-15 20:32N 46°12' W 123°23'32256.7
2014-Nov-15 20:24N 45°52' W 122°48'1417.0
2014-Nov-15 19:33N 46°05' W 122°56'20704.7
2014-Nov-15 19:31N 46°12' W 123°23'43607.6
2014-Nov-15 19:27N 45°37' W 122°48'15146.7
2014-Nov-15 19:21N 45°52' W 122°48'194350.1
2014-Nov-15 19:21N 45°33' W 122°42'6 7.4
2014-Nov-15 18:33N 45°37' W 122°48'1510677.4
2014-Nov-15 18:33N 45°52' W 122°48'14294.0
2014-Nov-15 18:30N 46°05' W 122°56'346055.2
2014-Nov-15 18:30N 45°33' W 122°42'49278.8
2014-Nov-15 18:19N 46°12' W 123°23'0 0.0
2014-Nov-15 17:31N 46°12' W 123°23'432236.7
2014-Nov-15 17:30N 45°37' W 122°48'29557.8
2014-Nov-15 17:27N 46°05' W 122°56'1426022.1
2014-Nov-15 17:27N 45°52' W 122°48'19353.3
2014-Nov-15 17:24N 45°33' W 122°42'6 6.9
2014-Nov-15 16:33N 45°37' W 122°48'1510681.8
2014-Nov-15 16:33N 45°52' W 122°48'142001.7
2014-Nov-15 16:33N 46°05' W 122°56'20283.0
2014-Nov-15 16:28N 46°12' W 123°23'4346.6
2014-Nov-15 15:33N 45°37' W 122°48'157623.7
2014-Nov-15 15:33N 45°52' W 122°48'142263.7
2014-Nov-15 15:33N 46°05' W 122°56'20883.0
2014-Nov-15 15:31N 46°12' W 123°23'4344.3
2014-Nov-15 14:33N 45°37' W 122°48'156673.4
2014-Nov-15 14:33N 45°52' W 122°48'142082.6
2014-Nov-15 14:33N 46°05' W 122°56'20916.1
2014-Nov-15 14:31N 46°12' W 123°23'3233.0
2014-Nov-15 13:33N 45°52' W 122°48'141859.4
2014-Nov-15 13:33N 46°05' W 122°56'20927.7
2014-Nov-15 13:31N 46°12' W 123°23'43619.9
2014-Nov-15 13:27N 45°37' W 122°48'0 0.0
2014-Nov-15 12:33N 45°37' W 122°48'1510673.1
2014-Nov-15 12:33N 45°52' W 122°48'321130.0
2014-Nov-15 12:31N 46°12' W 123°23'20350.6
2014-Nov-15 12:28N 46°05' W 122°56'1415.8
2014-Nov-15 11:33N 45°52' W 122°48'14400.3
2014-Nov-15 11:31N 46°05' W 122°56'20105.0
2014-Nov-15 11:19N 46°12' W 123°23'43363.2
2014-Nov-15 11:12N 45°37' W 122°48'1522.7
2014-Nov-15 10:33N 45°52' W 122°48'321097.7
2014-Nov-15 10:31N 46°12' W 123°23'202818.7
2014-Nov-15 10:31N 46°05' W 122°56'29462.8
2014-Nov-15 10:27N 45°37' W 122°48'1516.5
2014-Nov-15 09:33N 45°52' W 122°48'321057.4
2014-Nov-15 09:31N 46°12' W 123°23'203186.3
2014-Nov-15 09:31N 46°05' W 122°56'29460.8
2014-Nov-15 09:27N 45°37' W 122°48'1516.5
2014-Nov-15 08:33N 45°52' W 122°48'14397.4
2014-Nov-15 08:31N 46°05' W 122°56'292715.7
2014-Nov-15 08:30N 45°37' W 122°48'43321.5
2014-Nov-15 08:22N 46°12' W 123°23'4352.4
2014-Nov-15 07:33N 45°37' W 122°48'15285.5
2014-Nov-15 07:30N 45°52' W 122°48'321077.2
2014-Nov-15 07:28N 46°12' W 123°23'20361.0
2014-Nov-15 07:25N 46°05' W 122°56'2933.3
2014-Nov-15 06:33N 45°37' W 122°48'431342.0
2014-Nov-15 06:31N 46°12' W 123°23'321623.4
2014-Nov-15 06:30N 45°52' W 122°48'14166.3
2014-Nov-15 06:25N 46°05' W 122°56'2933.3
2014-Nov-15 05:33N 45°37' W 122°48'155931.9
2014-Nov-15 05:33N 45°52' W 122°48'321038.4
2014-Nov-15 05:31N 46°12' W 123°23'203664.3
2014-Nov-15 05:31N 46°05' W 122°56'1415.0
2014-Nov-15 04:33N 45°52' W 122°48'321047.7
2014-Nov-15 04:31N 46°12' W 123°23'432374.6
2014-Nov-15 04:30N 45°37' W 122°48'29737.3
2014-Nov-15 04:28N 46°05' W 122°56'1415.8
2014-Nov-15 03:33N 45°52' W 122°48'321047.7
2014-Nov-15 03:31N 46°12' W 123°23'202931.4
2014-Nov-15 03:31N 46°05' W 122°56'292789.1
2014-Nov-15 03:30N 45°37' W 122°48'4343.6
2014-Nov-15 02:31N 46°12' W 123°23'203331.5
2014-Nov-15 02:31N 46°05' W 122°56'29467.1
2014-Nov-15 02:27N 45°37' W 122°48'1510677.4
2014-Nov-15 02:27N 45°52' W 122°48'0 0.0
2014-Nov-15 01:33N 45°52' W 122°48'321020.0
2014-Nov-15 01:31N 46°12' W 123°23'203331.2
2014-Nov-15 01:31N 46°05' W 122°56'29471.3
2014-Nov-15 01:27N 45°37' W 122°48'1516.4
2014-Nov-15 00:33N 45°52' W 122°48'321029.1
2014-Nov-15 00:31N 46°12' W 123°23'203186.3
2014-Nov-15 00:31N 46°05' W 122°56'2969.9
2014-Nov-15 00:06N 45°37' W 122°48'0 0.0
2014-Nov-14 23:33N 45°37' W 122°48'158897.9
2014-Nov-14 23:33N 45°52' W 122°48'321029.0
2014-Nov-14 23:31N 46°12' W 123°23'20362.8
2014-Nov-14 23:28N 46°05' W 122°56'2931.5
2014-Nov-14 22:33N 45°37' W 122°48'431286.1
2014-Nov-14 22:31N 46°12' W 123°23'203331.2
2014-Nov-14 22:31N 46°05' W 122°56'141182.8
2014-Nov-14 22:30N 45°52' W 122°48'0 0.0
2014-Nov-14 21:33N 45°52' W 122°48'  

Dump ship's entire track history